Another Hard Day at the Office Weather Stats

 
 
 

High monthly outside Temperature, 22.8 , C
Low monthly outside Temperature, -1.0 , C
High yearly outside Temperature, 30.9 , C
Low yearly outside Temperature, -2.2 , C

Low monthly barometer, 1001.1 , mb
High monthly barometer, 1028.0 , mb
Low yearly barometer, 975.0 , mb
High yearly barometer 1041.1 , mb

High wind speed, 25.0 , mph
Time of High wind speed, 21:37 , mph
High monthly wind speed, 47.0 , mph
High yearly wind speed, 55.0 , mph

 

 




3126
                    Temp     Hi    Low   Out    Dew  Wind  Wind   Wind    Hi    Hi   Wind   Heat    THW                Rain    Heat    Cool    In     In    In     In     In   In Air  Wind  Wind    ISS   Arc.
  Date    Time     Out   Temp   Temp   Hum    Pt. Speed   Dir    Run Speed   Dir  Chill  Index  Index   Bar    Rain  Rate    D-D     D-D    Temp   Hum    Dew   Heat    EMC Density  Samp   Tx   Recept  Int.
---------------------------------------------------------------------------------------------------------------------------------------------------------------------------------------------------------------
 4/02/16   0:05    4.4    4.5    4.4    90    2.9   5.0     W   0.42   8.0   WNW    2.5    4.4    2.4  1028.5  0.00  0.00   0.048   0.000   20.4    47    8.7   19.5   8.77  .0754    114    1    100.0    5 
 4/02/16   0:10    4.4    4.4    4.4    89    2.7   5.0     W   0.42   7.0   WNW    2.4    4.3    2.4  1028.6  0.00  0.00   0.048   0.000   20.4    47    8.7   19.5   8.77  .0754    117    1    100.0    5 
 4/02/16   0:15    4.3    4.4    4.3    90    2.8   4.0   WNW   0.33   9.0   WNW    2.8    4.3    2.8  1028.5  0.00  0.00   0.049   0.000   20.4    47    8.7   19.5   8.77  .0754    117    1    100.0    5 
 4/02/16   0:20    4.3    4.4    4.3    90    2.8   5.0   WNW   0.42   9.0   WNW    2.3    4.3    2.3  1028.6  0.00  0.00   0.049   0.000   20.4    47    8.7   19.5   8.77  .0754    117    1    100.0    5 
 4/02/16   0:25    4.3    4.3    4.3    90    2.8   5.0   WNW   0.42   7.0     W    2.3    4.2    2.2  1028.5  0.00  0.00   0.049   0.000   20.4    47    8.7   19.4   8.78  .0754    116    1    100.0    5 
 4/02/16   0:30    4.2    4.3    4.2    90    2.7   4.0   WNW   0.33   6.0   WNW    2.7    4.2    2.7  1028.5  0.00  0.00   0.049   0.000   20.4    47    8.7   19.4   8.78  .0754    116    1    100.0    5 
 4/02/16   0:35    4.2    4.2    4.2    90    2.7   4.0   WNW   0.33   6.0   WNW    2.6    4.1    2.6  1028.4  0.00  0.00   0.049   0.000   20.4    47    8.7   19.4   8.78  .0754    117    1    100.0    5 
 4/02/16   0:40    4.1    4.2    4.1    90    2.6   4.0   WNW   0.33   5.0   WNW    2.5    4.0    2.4  1028.4  0.00  0.00   0.050   0.000   20.3    47    8.6   19.4   8.78  .0754    117    1    100.0    5 
 4/02/16   0:45    4.1    4.1    4.1    90    2.6   4.0   WNW   0.33   5.0   WNW    2.5    4.0    2.4  1028.2  0.00  0.00   0.050   0.000   20.3    47    8.6   19.4   8.78  .0754    116    1    100.0    5 
 4/02/16   0:50    4.0    4.1    4.0    90    2.5   3.0   WNW   0.25   5.0   WNW    3.1    3.9    3.0  1028.2  0.00  0.00   0.050   0.000   20.3    47    8.6   19.4   8.78  .0754    117    1    100.0    5 
 4/02/16   0:55    4.0    4.0    3.9    90    2.5   3.0    NW   0.25   4.0   WNW    3.1    3.9    3.0  1028.2  0.00  0.00   0.050   0.000   20.3    47    8.6   19.3   8.78  .0754    117    1    100.0    5 
 4/02/16   1:00    3.9    4.0    3.9    90    2.5   2.0   WNW   0.17   4.0   WNW    3.8    3.9    3.7  1028.0  0.00  0.00   0.050   0.000   20.3    47    8.6   19.3   8.78  .0754    117    1    100.0    5 
 4/02/16   1:05    3.9    3.9    3.9    90    2.5   3.0    NW   0.25   4.0    NW    2.9    3.9    2.9  1027.9  0.00  0.00   0.050   0.000   20.2    47    8.5   19.3   8.78  .0754    116    1    100.0    5 
 4/02/16   1:10    3.9    3.9    3.9    90    2.5   3.0    NW   0.25   4.0    NW    2.9    3.9    2.9  1027.9  0.00  0.00   0.050   0.000   20.2    46    8.2   19.3   8.65  .0754    118    1    100.0    5 
 4/02/16   1:15    3.9    3.9    3.9    90    2.5   3.0    NW   0.25   5.0    NW    2.9    3.9    2.9  1028.0  0.00  0.00   0.050   0.000   20.2    46    8.2   19.3   8.65  .0754    116    1    100.0    5 
 4/02/16   1:20    3.9    3.9    3.9    90    2.5   3.0   NNW   0.25   4.0    NW    2.9    3.9    2.9  1027.9  0.00  0.00   0.050   0.000   20.2    46    8.2   19.2   8.65  .0754    117    1    100.0    5 
 4/02/16   1:25    3.9    3.9    3.9    91    2.6   3.0    NW   0.25   4.0   NNW    2.9    3.9    2.9  1028.0  0.00  0.00   0.050   0.000   20.2    46    8.2   19.2   8.65  .0755    117    1    100.0    5 
 4/02/16   1:30    4.0    4.0    3.9    91    2.7   3.0    NW   0.25   5.0    NW    3.1    3.9    3.0  1027.9  0.00  0.00   0.050   0.000   20.1    46    8.1   19.2   8.65  .0755    117    1    100.0    5 
 4/02/16   1:35    4.1    4.1    4.0    91    2.7   3.0    NW   0.25   5.0    NW    3.1    4.0    3.1  1027.9  0.00  0.00   0.050   0.000   20.1    46    8.1   19.2   8.65  .0755    117    1    100.0    5 
 4/02/16   1:40    4.2    4.2    4.1    91    2.8   3.0   WNW   0.25   6.0    NW    3.2    4.1    3.2  1027.8  0.00  0.00   0.049   0.000   20.1    46    8.1   19.2   8.65  .0755    117    1    100.0    5 
 4/02/16   1:45    4.3    4.3    4.2    91    2.9   3.0     W   0.25   6.0   WNW    3.3    4.2    3.3  1027.6  0.00  0.00   0.049   0.000   20.1    46    8.1   19.1   8.65  .0755    115    1    100.0    5 
 4/02/16   1:50    4.4    4.4    4.3    91    3.0   4.0     W   0.33   6.0     W    2.9    4.3    2.8  1027.5  0.00  0.00   0.048   0.000   20.1    46    8.1   19.1   8.65  .0755    115    1    100.0    5 
 4/02/16   1:55    4.4    4.4    4.4    91    3.1   3.0     W   0.25   5.0     W    3.6    4.4    3.5  1027.5  0.00  0.00   0.048   0.000   20.0    46    8.0   19.1   8.65  .0755    117    1    100.0    5 
 4/02/16   2:00    4.6    4.6    4.4    91    3.2   3.0   WNW   0.25   7.0   WNW    3.7    4.5    3.6  1027.6  0.00  0.00   0.048   0.000   20.0    46    8.0   19.1   8.65  .0755    117    1    100.0    5 
 4/02/16   2:05    4.6    4.7    4.6    91    3.3   3.0   WNW   0.25   6.0   WNW    3.7    4.6    3.7  1027.6  0.00  0.00   0.048   0.000   19.9    46    8.0   19.0   8.65  .0755    117    1    100.0    5 
 4/02/16   2:10    4.7    4.7    4.6    90    3.2   3.0   WNW   0.25   5.0   WNW    3.8    4.6    3.7  1027.6  0.00  0.00   0.047   0.000   19.9    46    8.0   19.0   8.65  .0755    117    1    100.0    5 
 4/02/16   2:15    4.7    4.7    4.7    90    3.2   4.0     W   0.33   6.0   WNW    3.3    4.7    3.2  1027.5  0.00  0.00   0.047   0.000   19.9    46    8.0   19.0   8.65  .0755    118    1    100.0    5 
 4/02/16   2:20    4.8    4.8    4.7    90    3.3   5.0     W   0.42   8.0     W    2.9    4.8    2.9  1027.4  0.00  0.00   0.047   0.000   19.9    46    7.9   18.9   8.65  .0755    117    1    100.0    5 
 4/02/16   2:25    4.9    4.9    4.8    90    3.4   6.0     W   0.50   9.0     W    2.7    4.9    2.6  1027.3  0.00  0.00   0.046   0.000   19.9    46    7.9   18.9   8.65  .0755    115    1    100.0    5 
 4/02/16   2:30    5.2    5.2    4.9    90    3.7   6.0     W   0.50   9.0     W    2.9    5.1    2.9  1027.1  0.00  0.00   0.046   0.000   19.9    46    7.9   18.9   8.65  .0755    116    1    100.0    5 
 4/02/16   2:35    5.5    5.5    5.2    90    4.0   6.0     W   0.50  10.0     W    3.3    5.5    3.3  1027.1  0.00  0.00   0.045   0.000   19.8    46    7.9   18.9   8.65  .0755    117    1    100.0    5 
 4/02/16   2:40    5.9    5.9    5.5    90    4.4   7.0   WSW   0.58  12.0   WSW    3.6    5.9    3.6  1027.0  0.00  0.00   0.043   0.000   19.8    46    7.9   18.9   8.65  .0755    116    1    100.0    5 
 4/02/16   2:45    6.7    6.7    5.9    90    5.2  12.0   WSW   1.00  20.0   WSW    3.1    6.8    3.1  1026.8  0.00  0.00   0.040   0.000   19.8    46    7.8   18.8   8.65  .0755    116    1    100.0    5 
 4/02/16   2:50    7.2    7.2    6.7    88    5.4  15.0   WSW   1.25  20.0   WSW    3.1    7.2    3.1  1026.8  0.00  0.00   0.039   0.000   19.8    46    7.8   18.8   8.65  .0755    117    1    100.0    5 
 4/02/16   2:55    7.4    7.4    7.2    87    5.4  14.0   WSW   1.17  21.0    SW    3.4    7.4    3.4  1026.6  0.00  0.00   0.038   0.000   19.8    46    7.8   18.8   8.65  .0755    117    1    100.0    5 
 4/02/16   3:00    7.5    7.5    7.4    86    5.3  15.0   WSW   1.25  22.0   WSW    3.4    7.5    3.4  1026.5  0.00  0.00   0.038   0.000   19.7    46    7.8   18.8   8.65  .0755    116    1    100.0    5 
 4/02/16   3:05    7.6    7.6    7.5    86    5.4  16.0   WSW   1.33  23.0   WSW    3.3    7.6    3.3  1026.4  0.00  0.00   0.037   0.000   19.7    46    7.7   18.7   8.65  .0755    115    1    100.0    5 
 4/02/16   3:10    7.6    7.6    7.6    86    5.4  14.0   WSW   1.17  23.0   WSW    3.7    7.6    3.7  1026.3  0.00  0.00   0.037   0.000   19.7    46    7.7   18.7   8.65  .0755    117    1    100.0    5 
 4/02/16   3:15    7.6    7.7    7.6    86    5.4  14.0   WSW   1.17  21.0   WSW    3.7    7.6    3.7  1026.1  0.00  0.00   0.037   0.000   19.6    46    7.7   18.6   8.65  .0755    117    1    100.0    5 
 4/02/16   3:20    7.7    7.7    7.7    86    5.5  14.0   WSW   1.17  20.0   WSW    3.8    7.7    3.8  1025.9  0.00  0.00   0.037   0.000   19.6    46    7.7   18.6   8.65  .0755    116    1    100.0    5 
 4/02/16   3:25    7.7    7.7    7.7    86    5.5  15.0   WSW   1.25  21.0    SW    3.6    7.7    3.6  1025.8  0.00  0.00   0.037   0.000   19.6    46    7.7   18.6   8.65  .0755    117    1    100.0    5 
 4/02/16   3:30    7.8    7.8    7.7    87    5.7  14.0   WSW   1.17  20.0   WSW    3.9    7.8    3.9  1025.6  0.00  0.00   0.037   0.000   19.6    46    7.6   18.6   8.65  .0755    116    1    100.0    5 
 4/02/16   3:35    7.8    7.8    7.7    88    5.9  14.0   WSW   1.17  19.0    SW    3.9    7.8    3.9  1025.7  0.00  0.00   0.037   0.000   19.6    46    7.6   18.6   8.65  .0755    117    1    100.0    5 
 4/02/16   3:40    7.9    7.9    7.8    88    6.0  15.0   WSW   1.25  19.0   WSW    3.8    7.9    3.8  1025.5  0.00  0.00   0.036   0.000   19.5    46    7.6   18.5   8.65  .0755    116    1    100.0    5 
 4/02/16   3:45    7.9    7.9    7.9    88    6.1  15.0   WSW   1.25  20.0   WSW    3.9    8.0    3.9  1025.4  0.00  0.00   0.036   0.000   19.5    46    7.6   18.5   8.65  .0755    117    1    100.0    5 
 4/02/16   3:50    8.1    8.1    7.9    88    6.2  17.0   WSW   1.42  22.0    SW    3.7    8.1    3.8  1025.4  0.00  0.00   0.036   0.000   19.4    46    7.5   18.4   8.65  .0755    116    1    100.0    5 
 4/02/16   3:55    8.2    8.2    8.1    88    6.3  17.0   WSW   1.42  23.0   WSW    3.8    8.2    3.9  1025.2  0.00  0.00   0.035   0.000   19.4    46    7.5   18.4   8.65  .0755    116    1    100.0    5 
 4/02/16   4:00    8.2    8.2    8.2    89    6.5  17.0   WSW   1.42  21.0   WSW    3.9    8.3    3.9  1025.1  0.00  0.00   0.035   0.000   19.4    45    7.1   18.3   8.51  .0755    115    1    100.0    5 
 4/02/16   4:05    8.3    8.3    8.2    89    6.6  17.0   WSW   1.42  22.0   WSW    3.9    8.4    4.1  1025.0  0.00  0.00   0.035   0.000   19.4    45    7.1   18.3   8.51  .0755    115    1    100.0    5 
 4/02/16   4:10    8.3    8.3    8.3    89    6.6  17.0   WSW   1.42  20.0   WSW    4.0    8.4    4.1  1024.9  0.00  0.00   0.035   0.000   19.3    45    7.1   18.3   8.51  .0755    117    1    100.0    5 
 4/02/16   4:15    8.4    8.4    8.3    90    6.9  18.0   WSW   1.50  24.0   WSW    3.9    8.6    4.1  1024.8  0.00  0.00   0.034   0.000   19.3    45    7.1   18.3   8.51  .0755    116    1    100.0    5 
 4/02/16   4:20    8.4    8.4    8.4    90    6.9  17.0   WSW   1.42  24.0   WSW    4.1    8.6    4.2  1024.8  0.00  0.00   0.034   0.000   19.3    45    7.0   18.2   8.52  .0755    116    1    100.0    5 
 4/02/16   4:25    8.4    8.4    8.4    90    6.9  18.0   WSW   1.50  25.0   WSW    3.9    8.6    4.1  1024.7  0.00  0.00   0.034   0.000   19.3    45    7.0   18.2   8.52  .0755    117    1    100.0    5 
 4/02/16   4:30    8.5    8.5    8.4    90    7.0  19.0   WSW   1.58  26.0   WSW    3.9    8.6    4.0  1024.5  0.00  0.00   0.034   0.000   19.2    45    7.0   18.1   8.52  .0755    116    1    100.0    5 
 4/02/16   4:35    8.5    8.5    8.5    91    7.1  18.0   WSW   1.50  25.0   WSW    4.1    8.6    4.2  1024.5  0.00  0.00   0.034   0.000   19.2    45    7.0   18.1   8.52  .0755    117    1    100.0    5 
 4/02/16   4:40    8.6    8.6    8.5    91    7.2  20.0   WSW   1.67  29.0   WSW    3.8    8.7    3.9  1024.4  0.00  0.00   0.034   0.000   19.2    45    6.9   18.1   8.52  .0755    117    1    100.0    5 
 4/02/16   4:45    8.6    8.6    8.6    91    7.2  22.0   WSW   1.83  30.0   WSW    3.6    8.7    3.7  1024.3  0.00  0.00   0.034   0.000   19.2    45    6.9   18.1   8.52  .0755    116    1    100.0    5 
 4/02/16   4:50    8.5    8.6    8.5    91    7.1  19.0   WSW   1.58  30.0    SW    3.9    8.6    4.0  1024.3  0.00  0.00   0.034   0.000   19.1    45    6.9   18.0   8.52  .0755    117    1    100.0    5 
 4/02/16   4:55    8.5    8.5    8.5    91    7.1  20.0   WSW   1.67  29.0   WSW    3.8    8.6    3.9  1024.1  0.00  0.00   0.034   0.000   19.1    45    6.9   18.0   8.52  .0755    117    1    100.0    5 
 4/02/16   5:00    8.5    8.5    8.5    92    7.3  20.0   WSW   1.67  27.0   WSW    3.8    8.7    3.9  1024.0  0.00  0.00   0.034   0.000   19.1    46    7.2   18.0   8.65  .0755    114    1    100.0    5 
 4/02/16   5:05    8.6    8.6    8.5    92    7.3  22.0   WSW   1.83  29.0   WSW    3.6    8.7    3.7  1023.9  0.00  0.00   0.034   0.000   19.1    46    7.2   18.0   8.65  .0755    116    1    100.0    5 
 4/02/16   5:10    8.6    8.6    8.6    93    7.5  24.0   WSW   2.00  31.0   WSW    3.3    8.7    3.5  1023.9  0.00  0.00   0.034   0.000   19.0    46    7.1   17.9   8.65  .0755    117    1    100.0    5 
 4/02/16   5:15    8.6    8.6    8.6    93    7.5  22.0   WSW   1.83  30.0   WSW    3.6    8.7    3.7  1023.9  0.00  0.00   0.034   0.000   18.9    46    7.1   17.8   8.65  .0755    117    1    100.0    5 
 4/02/16   5:20    8.6    8.6    8.6    93    7.5  22.0   WSW   1.83  29.0    SW    3.6    8.7    3.7  1023.8  0.00  0.00   0.034   0.000   18.9    46    7.1   17.8   8.65  .0755    116    1    100.0    5 
 4/02/16   5:25    8.6    8.6    8.6    94    7.7  22.0   WSW   1.83  28.0   WSW    3.7    8.8    3.8  1023.7  0.00  0.00   0.034   0.000   18.9    46    7.0   17.8   8.65  .0755    117    1    100.0    5 
 4/02/16   5:30    8.6    8.7    8.6    94    7.7  22.0   WSW   1.83  31.0   WSW    3.7    8.8    3.8  1023.7  0.00  0.00   0.034   0.000   18.9    46    7.0   17.8   8.65  .0755    117    1    100.0    5 
 4/02/16   5:35    8.6    8.6    8.6    95    7.9  20.0   WSW   1.67  26.0   WSW    3.9    8.8    4.1  1023.5  0.00  0.00   0.034   0.000   18.9    46    7.0   17.8   8.65  .0755    116    1    100.0    5 
 4/02/16   5:40    8.6    8.6    8.6    95    7.8  19.0   WSW   1.58  28.0   WSW    3.9    8.7    4.1  1023.5  0.00  0.00   0.034   0.000   18.8    46    7.0   17.7   8.65  .0755    117    1    100.0    5 
 4/02/16   5:45    8.6    8.6    8.6    95    7.9  19.0   WSW   1.58  24.0     W    4.1    8.8    4.2  1023.4  0.00  0.00   0.034   0.000   18.8    46    6.9   17.7   8.65  .0755    117    1    100.0    5 
 4/02/16   5:50    8.7    8.7    8.6    95    7.9  17.0   WSW   1.42  23.0    SW    4.4    8.9    4.6  1023.3  0.00  0.00   0.034   0.000   18.8    46    6.9   17.7   8.65  .0755    116    1    100.0    5 
 4/02/16   5:55    8.7    8.7    8.7    96    8.1  16.0   WSW   1.33  23.0   WSW    4.6    8.9    4.8  1023.1  0.00  0.00   0.034   0.000   18.8    46    6.9   17.7   8.65  .0755    117    1    100.0    5 
 4/02/16   6:00    8.7    8.7    8.7    96    8.1  19.0   WSW   1.58  25.0    SW    4.2    8.9    4.4  1023.2  0.00  0.00   0.033   0.000   18.7    46    6.9   17.6   8.65  .0755    117    1    100.0    5 
 4/02/16   6:05    8.8    8.8    8.7    96    8.2  18.0   WSW   1.50  25.0   WSW    4.4    9.0    4.6  1023.0  0.00  0.00   0.033   0.000   18.7    46    6.9   17.6   8.65  .0755    116    1    100.0    5 
 4/02/16   6:10    8.8    8.8    8.8    96    8.2  13.0     W   1.08  25.0   WSW    5.2    9.0    5.4  1023.0  0.00  0.00   0.033   0.000   18.7    46    6.8   17.6   8.65  .0755    117    1    100.0    5 
 4/02/16   6:15    8.8    8.8    8.8    96    8.2  10.0     W   0.83  17.0     W    6.0    9.0    6.2  1022.9  0.00  0.00   0.033   0.000   18.7    46    6.8   17.6   8.65  .0755    116    1    100.0    5 
 4/02/16   6:20    8.8    8.8    8.8    96    8.2  12.0   WSW   1.00  20.0     W    5.4    9.0    5.7  1022.8  0.00  0.00   0.033   0.000   18.6    46    6.8   17.4   8.65  .0755    117    1    100.0    5 
 4/02/16   6:25    8.9    8.9    8.8    96    8.3  13.0   WSW   1.08  20.0     W    5.3    9.1    5.6  1022.9  0.00  0.00   0.033   0.000   18.6    46    6.8   17.4   8.65  .0756    117    1    100.0    5 
 4/02/16   6:30    9.0    9.0    8.9    96    8.4  13.0     W   1.08  20.0     W    5.4    9.3    5.7  1022.9  0.00  0.00   0.032   0.000   18.6    46    6.7   17.4   8.65  .0756    117    1    100.0    5 
 4/02/16   6:35    9.1    9.1    9.0    96    8.5  10.0     W   0.83  18.0     W    6.3    9.3    6.6  1022.8  0.00  0.00   0.032   0.000   18.6    46    6.7   17.4   8.65  .0756    116    1    100.0    5 
 4/02/16   6:40    9.1    9.1    9.1    96    8.5  10.0     W   0.83  19.0     W    6.3    9.3    6.6  1022.8  0.00  0.00   0.032   0.000   18.6    46    6.7   17.4   8.65  .0756    117    1    100.0    5 
 4/02/16   6:45    9.1    9.1    9.1    96    8.5  12.0     W   1.00  18.0   WSW    5.8    9.4    6.1  1022.8  0.00  0.00   0.032   0.000   18.6    46    6.7   17.4   8.65  .0756    115    1    100.0    5 
 4/02/16   6:50    9.2    9.2    9.1    96    8.6  10.0     W   0.83  20.0     W    6.4    9.4    6.7  1022.9  0.00  0.00   0.032   0.000   18.5    46    6.7   17.3   8.65  .0756    117    1    100.0    5 
 4/02/16   6:55    9.2    9.2    9.2    96    8.6  11.0     W   0.92  18.0     W    6.2    9.5    6.5  1023.0  0.00  0.00   0.032   0.000   18.5    47    7.0   17.4   8.84  .0756    117    1    100.0    5 
 4/02/16   7:00    9.3    9.3    9.2    95    8.5  12.0     W   1.00  19.0   WSW    6.0    9.6    6.3  1022.9  0.00  0.00   0.031   0.000   18.5    47    7.0   17.4   8.84  .0756    116    1    100.0    5 
 4/02/16   7:05    9.3    9.3    9.3    95    8.6  12.0     W   1.00  19.0   WSW    6.1    9.6    6.4  1023.2  0.00  0.00   0.031   0.000   18.5    47    7.0   17.4   8.84  .0756    117    1    100.0    5 
 4/02/16   7:10    9.3    9.3    9.3    95    8.6  11.0     W   0.92  21.0     W    6.3    9.6    6.6  1023.3  0.00  0.00   0.031   0.000   18.4    47    6.9   17.3   8.85  .0756    116    1    100.0    5 
 4/02/16   7:15    9.3    9.3    9.3    95    8.6  11.0     W   0.92  18.0     W    6.3    9.6    6.6  1023.3  0.00  0.00   0.031   0.000   18.4    47    6.9   17.3   8.85  .0756    117    1    100.0    5 
 4/02/16   7:20    9.3    9.3    9.3    95    8.6  11.0     W   0.92  20.0     W    6.3    9.6    6.6  1023.3  0.00  0.00   0.031   0.000   18.4    47    6.9   17.3   8.85  .0756    117    1    100.0    5 
 4/02/16   7:25    9.3    9.3    9.3    95    8.6  12.0     W   1.00  22.0   WSW    6.1    9.6    6.4  1023.4  0.00  0.00   0.031   0.000   18.4    47    6.9   17.3   8.85  .0756    117    1    100.0    5 
 4/02/16   7:30    9.4    9.4    9.3    95    8.6  14.0     W   1.17  24.0     W    5.7    9.7    6.0  1023.4  0.00  0.00   0.031   0.000   18.4    47    6.9   17.3   8.85  .0756    117    1    100.0    5 
 4/02/16   7:35    9.4    9.4    9.3    95    8.6  14.0     W   1.17  21.0   WNW    5.7    9.7    6.0  1023.4  0.00  0.00   0.031   0.000   18.4    47    6.9   17.3   8.85  .0756    118    1    100.0    5 
 4/02/16   7:40    9.4    9.4    9.4    94    8.5  12.0     W   1.00  20.0     W    6.2    9.7    6.4  1023.4  0.00  0.00   0.031   0.000   18.3    47    6.8   17.2   8.85  .0757    115    1    100.0    5 
 4/02/16   7:45    9.4    9.4    9.4    94    8.5  13.0     W   1.08  21.0     W    5.9    9.7    6.2  1023.4  0.00  0.00   0.031   0.000   18.3    47    6.8   17.2   8.85  .0757    117    1    100.0    5 
 4/02/16   7:50    9.4    9.4    9.4    94    8.5  13.0     W   1.08  24.0     W    5.9    9.7    6.2  1023.4  0.00  0.00   0.031   0.000   18.3    47    6.8   17.2   8.85  .0757    117    1    100.0    5 
 4/02/16   7:55    9.5    9.5    9.4    94    8.6  13.0     W   1.08  21.0     W    6.0    9.8    6.3  1023.4  0.00  0.00   0.031   0.000   18.3    47    6.8   17.2   8.85  .0757    117    1    100.0    5 
 4/02/16   8:00    9.5    9.5    9.5    94    8.6  13.0     W   1.08  21.0     W    6.0    9.8    6.3  1023.5  0.00  0.00   0.031   0.000   18.3    47    6.8   17.2   8.85  .0757    115    1    100.0    5 
 4/02/16   8:05    9.6    9.6    9.5    94    8.6  12.0     W   1.00  19.0     W    6.3    9.8    6.6  1023.5  0.00  0.00   0.030   0.000   18.3    47    6.8   17.2   8.85  .0757    115    1    100.0    5 
 4/02/16   8:10    9.6    9.6    9.6    94    8.7  12.0     W   1.00  20.0     W    6.4    9.9    6.7  1023.6  0.00  0.00   0.030   0.000   18.3    48    7.1   17.3   8.95  .0757    115    1    100.0    5 
 4/02/16   8:15    9.6    9.6    9.6    94    8.7  12.0     W   1.00  22.0     W    6.4    9.9    6.7  1023.6  0.00  0.00   0.030   0.000   18.3    48    7.1   17.3   8.95  .0757    117    1    100.0    5 
 4/02/16   8:20    9.7    9.7    9.6    94    8.7  14.0     W   1.17  24.0     W    6.0    9.9    6.3  1023.8  0.00  0.00   0.030   0.000   18.3    48    7.1   17.3   8.95  .0757    115    1    100.0    5 
 4/02/16   8:25    9.7    9.7    9.7    94    8.8  13.0     W   1.08  20.0     W    6.3   10.0    6.6  1023.7  0.00  0.00   0.030   0.000   18.3    48    7.1   17.3   8.95  .0757    116    1    100.0    5 
 4/02/16   8:30    9.7    9.7    9.7    94    8.8  12.0     W   1.00  20.0     W    6.6   10.0    6.8  1023.8  0.00  0.00   0.030   0.000   18.4    48    7.2   17.3   8.95  .0757    117    1    100.0    5 
 4/02/16   8:35    9.7    9.7    9.7    94    8.8  12.0     W   1.00  17.0     W    6.6   10.0    6.8  1023.8  0.00  0.00   0.030   0.000   18.4    48    7.2   17.3   8.95  .0757    116    1    100.0    5 
 4/02/16   8:40    9.8    9.8    9.7    94    8.9  12.0     W   1.00  20.0     W    6.6   10.1    6.9  1023.8  0.00  0.00   0.030   0.000   18.4    49    7.5   17.4   9.15  .0756    117    1    100.0    5 
 4/02/16   8:45    9.8    9.8    9.8    94    8.9  12.0     W   1.00  20.0     W    6.6   10.1    6.9  1023.7  0.00  0.00   0.030   0.000   18.4    49    7.5   17.4   9.15  .0756    116    1    100.0    5 
 4/02/16   8:50    9.8    9.8    9.8    94    8.9  12.0     W   1.00  22.0     W    6.6   10.1    6.9  1023.8  0.00  0.00   0.030   0.000   18.4    49    7.5   17.4   9.15  .0756    117    1    100.0    5 
 4/02/16   8:55    9.8    9.8    9.8    94    8.9  13.0     W   1.08  22.0   WSW    6.4   10.1    6.7  1023.8  0.00  0.00   0.030   0.000   18.5    49    7.6   17.5   9.14  .0756    116    1    100.0    5 
 4/02/16   9:00    9.8    9.8    9.8    94    8.9  12.0     W   1.00  21.0     W    6.7   10.1    6.9  1023.8  0.00  0.00   0.030   0.000   18.5    49    7.6   17.5   9.14  .0756    115    1    100.0    5 
 4/02/16   9:05    9.8    9.8    9.8    94    8.9  12.0     W   1.00  21.0     W    6.7   10.1    6.9  1023.8  0.00  0.00   0.030   0.000   18.5    49    7.6   17.5   9.14  .0756    117    1    100.0    5 
 4/02/16   9:10    9.9    9.9    9.8    94    9.0  12.0     W   1.00  16.0     W    6.7   10.2    7.0  1023.8  0.00  0.00   0.029   0.000   18.6    49    7.6   17.6   9.14  .0756    116    1    100.0    5 
 4/02/16   9:15    9.9    9.9    9.8    94    9.0  13.0     W   1.08  20.0     W    6.5   10.2    6.8  1023.9  0.00  0.00   0.029   0.000   18.6    49    7.6   17.6   9.14  .0756    115    1    100.0    5 
 4/02/16   9:20    9.9    9.9    9.9    94    9.0  12.0     W   1.00  20.0     W    6.8   10.2    7.1  1023.9  0.00  0.00   0.029   0.000   18.6    49    7.7   17.7   9.14  .0756    117    1    100.0    5 
 4/02/16   9:25   10.0   10.0    9.9    94    9.1  11.0     W   0.92  19.0     W    7.1   10.3    7.4  1024.0  0.00  0.00   0.029   0.000   18.6    49    7.7   17.7   9.14  .0756    115    1    100.0    5 
 4/02/16   9:30   10.1   10.1   10.0    94    9.1  12.0     W   1.00  19.0     W    6.9   10.3    7.1  1024.1  0.00  0.00   0.029   0.000   18.7    49    7.7   17.7   9.14  .0756    117    1    100.0    5 
 4/02/16   9:35   10.1   10.1   10.1    94    9.2  10.0     W   0.83  17.0   WNW    7.5   10.3    7.7  1024.0  0.00  0.00   0.029   0.000   18.7    49    7.7   17.7   9.14  .0756    116    1    100.0    5 
 4/02/16   9:40   10.1   10.1   10.1    93    9.0  12.0     W   1.00  19.0     W    6.9   10.3    7.2  1024.1  0.00  0.00   0.029   0.000   18.7    49    7.7   17.7   9.14  .0756    116    1    100.0    5 
 4/02/16   9:45   10.2   10.2   10.1    93    9.1  12.0     W   1.00  18.0   WSW    7.0   10.4    7.2  1024.1  0.00  0.00   0.028   0.000   18.7    49    7.8   17.8   9.14  .0756    116    1    100.0    5 
 4/02/16   9:50   10.2   10.3   10.2    93    9.1  12.0   WSW   1.00  21.0   WSW    7.1   10.4    7.3  1024.1  0.00  0.00   0.028   0.000   18.7    49    7.8   17.8   9.14  .0756    117    1    100.0    5 
 4/02/16   9:55   10.4   10.4   10.3    93    9.3  12.0     W   1.00  20.0   WSW    7.3   10.6    7.4  1024.3  0.00  0.00   0.028   0.000   18.7    49    7.8   17.8   9.14  .0756    117    1    100.0    5 
 4/02/16  10:00   10.6   10.6   10.4    93    9.5  12.0     W   1.00  19.0     W    7.4   10.7    7.6  1024.4  0.00  0.00   0.027   0.000   18.8    49    7.8   17.8   9.13  .0756    116    1    100.0    5 
 4/02/16  10:05   10.7   10.7   10.6    93    9.6  12.0     W   1.00  20.0    SW    7.7   10.9    7.8  1024.4  0.00  0.00   0.026   0.000   18.8    49    7.9   17.9   9.13  .0755    117    1    100.0    5 
 4/02/16  10:10   10.9   10.9   10.7    92    9.6  14.0     W   1.17  24.0     W    7.4   11.1    7.6  1024.4  0.00  0.00   0.026   0.000   18.8    49    7.9   17.9   9.13  .0755    115    1    100.0    5 
 4/02/16  10:15   11.1   11.1   10.9    92    9.8  14.0     W   1.17  22.0     W    7.6   11.2    7.7  1024.4  0.00  0.00   0.025   0.000   18.8    49    7.9   17.9   9.13  .0755    116    1    100.0    5 
 4/02/16  10:20   10.9   11.1   10.9    92    9.7  14.0     W   1.17  22.0   WNW    7.5   11.1    7.7  1024.4  0.00  0.00   0.026   0.000   18.9    50    8.2   18.0   9.33  .0755    117    1    100.0    5 
 4/02/16  10:25   10.9   11.0   10.9    92    9.7  13.0     W   1.08  19.0     W    7.7   11.1    7.8  1024.5  0.00  0.00   0.026   0.000   18.9    50    8.2   18.0   9.33  .0755    117    1    100.0    5 
 4/02/16  10:30   11.0   11.0   10.9    92    9.7  12.0     W   1.00  21.0     W    8.0   11.1    8.1  1024.6  0.00  0.00   0.025   0.000   18.9    50    8.3   18.1   9.33  .0755    116    1    100.0    5 
 4/02/16  10:35   11.1   11.1   11.0    91    9.6  11.0     W   0.92  17.0     W    8.3   11.2    8.4  1024.6  0.00  0.00   0.025   0.000   18.9    50    8.3   18.1   9.33  .0755    116    1    100.0    5 
 4/02/16  10:40   11.1   11.1   11.1    91    9.7  11.0     W   0.92  17.0     W    8.4   11.2    8.5  1024.5  0.00  0.00   0.025   0.000   19.0    50    8.3   18.1   9.33  .0755    117    1    100.0    5 
 4/02/16  10:45   11.1   11.1   11.1    91    9.7  10.0     W   0.83  17.0     W    8.7   11.2    8.8  1024.5  0.00  0.00   0.025   0.000   19.1    50    8.4   18.2   9.32  .0755    118    1    100.0    5 
 4/02/16  10:50   11.1   11.1   11.1    91    9.7  10.0     W   0.83  17.0     W    8.7   11.2    8.8  1024.5  0.00  0.00   0.025   0.000   19.1    50    8.4   18.2   9.32  .0755    117    1    100.0    5 
 4/02/16  10:55   11.2   11.2   11.1    91    9.8  11.0     W   0.92  17.0     W    8.4   11.3    8.6  1024.5  0.00  0.00   0.025   0.000   19.1    50    8.4   18.2   9.32  .0755    116    1    100.0    5 
 4/02/16  11:00   11.2   11.2   11.2    91    9.8  10.0     W   0.83  15.0     W    8.7   11.3    8.8  1024.5  0.00  0.00   0.025   0.000   19.1    50    8.4   18.3   9.32  .0755    117    1    100.0    5 
 4/02/16  11:05   11.2   11.2   11.2    91    9.8   9.0     W   0.75  14.0     W    9.1   11.3    9.2  1024.6  0.00  0.00   0.025   0.000   19.1    50    8.4   18.3   9.32  .0755    117    1    100.0    5 
 4/02/16  11:10   11.3   11.3   11.2    91    9.9   8.0     W   0.67  15.0     W    9.6   11.4    9.7  1024.6  0.00  0.00   0.024   0.000   19.1    50    8.4   18.3   9.32  .0755    115    1    100.0    5 
 4/02/16  11:15   11.3   11.3   11.3    91    9.9   9.0     W   0.75  16.0   WNW    9.3   11.4    9.4  1024.6  0.00  0.00   0.024   0.000   19.1    50    8.4   18.3   9.32  .0755    117    1    100.0    5 
 4/02/16  11:20   11.4   11.4   11.3    91   10.0   8.0     W   0.67  15.0     W    9.7   11.5    9.8  1024.8  0.00  0.00   0.024   0.000   19.2    50    8.5   18.3   9.32  .0755    116    1    100.0    5 
 4/02/16  11:25   11.5   11.5   11.4    90    9.9   8.0     W   0.67  11.0     W    9.8   11.6    9.9  1024.7  0.00  0.00   0.024   0.000   19.2    50    8.5   18.3   9.32  .0755    116    1    100.0    5 
 4/02/16  11:30   11.6   11.6   11.5    90   10.0   9.0     W   0.75  14.0     W    9.6   11.6    9.6  1024.8  0.00  0.00   0.024   0.000   19.2    50    8.5   18.3   9.32  .0755    117    1    100.0    5 
 4/02/16  11:35   11.6   11.6   11.6    90   10.0   9.0     W   0.75  13.0     W    9.6   11.7    9.7  1024.7  0.00  0.00   0.023   0.000   19.2    50    8.5   18.4   9.32  .0754    116    1    100.0    5 
 4/02/16  11:40   11.6   11.6   11.6    90   10.0   8.0   WSW   0.67  13.0     W    9.9   11.6   10.0  1024.7  0.00  0.00   0.024   0.000   19.2    50    8.5   18.4   9.32  .0754    116    1    100.0    5 
 4/02/16  11:45   11.4   11.6   11.4    90    9.9  10.0   WSW   0.83  13.0   WSW    9.1   11.5    9.1  1024.7  0.00  0.00   0.024   0.000   19.2    50    8.5   18.4   9.32  .0754    115    1    100.0    5 
 4/02/16  11:50   11.5   11.5   11.4    90    9.9   9.0   WSW   0.75  14.0   WSW    9.4   11.6    9.5  1024.7  0.00  0.00   0.024   0.000   19.3    50    8.6   18.4   9.32  .0754    118    1    100.0    5 
 4/02/16  11:55   11.6   11.6   11.5    90   10.0   9.0   WSW   0.75  14.0     W    9.6   11.6    9.6  1024.6  0.00  0.00   0.024   0.000   19.3    50    8.6   18.4   9.32  .0754    116    1    100.0    5 
 4/02/16  12:00   11.7   11.8   11.6    90   10.1   8.0   WSW   0.67  12.0   WSW   10.1   11.8   10.2  1024.6  0.00  0.00   0.023   0.000   19.3    50    8.6   18.4   9.32  .0754    116    1    100.0    5 
 4/02/16  12:05   11.3   11.8   11.3    89    9.5  11.0   WSW   0.92  16.0   WSW    8.6   11.3    8.6  1024.6  0.00  0.00   0.024   0.000   19.3    50    8.6   18.6   9.31  .0754    117    1    100.0    5 
 4/02/16  12:10   11.1   11.3   11.1    90    9.5  10.0   WSW   0.83  15.0     W    8.7   11.2    8.8  1024.5  0.00  0.00   0.025   0.000   19.3    50    8.6   18.6   9.31  .0754    116    1    100.0    5 
 4/02/16  12:15   11.3   11.3   11.1    91    9.9  10.0   WSW   0.83  18.0   WSW    8.9   11.4    9.1  1024.5  0.00  0.00   0.024   0.000   19.4    50    8.7   18.6   9.31  .0754    117    1    100.0    5 
 4/02/16  12:20   11.4   11.4   11.3    90    9.8  11.0   WSW   0.92  15.0   WSW    8.7   11.5    8.8  1024.5  0.00  0.00   0.024   0.000   19.4    50    8.7   18.6   9.31  .0754    117    1    100.0    5 
 4/02/16  12:25   11.6   11.6   11.4    90   10.0  11.0   WSW   0.92  15.0     W    8.9   11.6    8.9  1024.5  0.00  0.00   0.024   0.000   19.4    50    8.7   18.6   9.31  .0754    117    1    100.0    5 
 4/02/16  12:30   11.6   11.6   11.6    90   10.0  11.0   WSW   0.92  16.0     W    8.9   11.7    9.0  1024.6  0.00  0.00   0.023   0.000   19.4    50    8.7   18.7   9.31  .0754    117    1    100.0    5 
 4/02/16  12:35   11.8   11.8   11.6    90   10.2  10.0   WSW   0.83  16.0     W    9.6   11.9    9.6  1024.6  0.00  0.00   0.023   0.000   19.5    50    8.8   18.7   9.31  .0753    115    1    100.0    5 
 4/02/16  12:40   12.2   12.2   11.9    89   10.4   8.0   WSW   0.67  15.0     W   10.7   12.2   10.7  1024.6  0.00  0.00   0.021   0.000   19.5    50    8.8   18.7   9.31  .0753    116    1    100.0    5 
 4/02/16  12:45   12.8   12.8   12.2    88   10.8   8.0     W   0.67  17.0     W   11.4   12.8   11.4  1024.6  0.00  0.00   0.019   0.000   19.6    50    8.8   18.8   9.31  .0753    117    1    100.0    5 
 4/02/16  12:50   13.4   13.4   12.8    85   10.9  10.0     W   0.83  18.0     W   11.3   13.3   11.3  1024.6  0.00  0.00   0.017   0.000   19.6    50    8.9   18.8   9.30  .0753    118    1    100.0    5 
 4/02/16  12:55   13.6   13.6   13.4    83   10.8  11.0     W   0.92  18.0   WNW   11.3   13.5   11.2  1024.6  0.00  0.00   0.016   0.000   19.6    50    8.9   18.8   9.30  .0753    117    1    100.0    5 
 4/02/16  13:00   13.8   13.8   13.6    83   10.9  10.0     W   0.83  15.0     W   11.8   13.7   11.7  1024.6  0.00  0.00   0.016   0.000   19.7    50    8.9   18.9   9.30  .0753    117    1    100.0    5 
 4/02/16  13:05   14.1   14.1   13.8    82   11.0  10.0     W   0.83  14.0     W   12.1   13.9   12.0  1024.7  0.00  0.00   0.015   0.000   19.7    50    9.0   18.9   9.30  .0753    117    1    100.0    5 
 4/02/16  13:10   14.3   14.3   14.1    80   10.9   9.0     W   0.75  18.0   WNW   12.7   14.2   12.6  1024.6  0.00  0.00   0.014   0.000   19.8    50    9.1   19.1   9.30  .0753    117    1    100.0    5 
 4/02/16  13:15   14.2   14.3   14.2    80   10.8  11.0     W   0.92  19.0     W   11.9   14.1   11.8  1024.6  0.00  0.00   0.014   0.000   19.8    50    9.1   19.1   9.30  .0752    117    1    100.0    5 
 4/02/16  13:20   14.1   14.2   14.1    79   10.5  12.0     W   1.00  18.0     W   11.5   13.9   11.3  1024.7  0.00  0.00   0.015   0.000   19.8    50    9.1   19.1   9.30  .0752    117    1    100.0    5 
 4/02/16  13:25   14.1   14.1   14.1    79   10.5  10.0     W   0.83  16.0     W   12.1   13.9   11.9  1024.7  0.00  0.00   0.015   0.000   19.9    50    9.2   19.2   9.29  .0752    117    1    100.0    5 
 4/02/16  13:30   14.1   14.1   14.1    79   10.5  10.0     W   0.83  17.0     W   12.2   13.9   12.0  1024.7  0.00  0.00   0.015   0.000   19.9    50    9.2   19.2   9.29  .0752    115    1    100.0    5 
 4/02/16  13:35   14.2   14.2   14.1    79   10.6   9.0     W   0.75  15.0     W   12.6   14.0   12.4  1024.7  0.00  0.00   0.014   0.000   19.9    50    9.2   19.2   9.29  .0752    117    1    100.0    5 
 4/02/16  13:40   14.3   14.3   14.2    78   10.5  11.0   WNW   0.92  18.0   WNW   12.1   14.1   11.9  1024.6  0.00  0.00   0.014   0.000   20.0    50    9.3   19.3   9.29  .0752    117    1    100.0    5 
 4/02/16  13:45   14.4   14.4   14.3    77   10.5   9.0     W   0.75  17.0     W   12.9   14.2   12.7  1024.6  0.00  0.00   0.014   0.000   20.0    50    9.3   19.3   9.29  .0752    116    1    100.0    5 
 4/02/16  13:50   14.4   14.4   14.4    77   10.5   8.0   WNW   0.67  14.0   WNW   13.4   14.2   13.2  1024.6  0.00  0.00   0.014   0.000   20.1    50    9.3   19.3   9.29  .0752    116    1    100.0    5 
 4/02/16  13:55   14.3   14.4   14.3    77   10.4   9.0   WNW   0.75  15.0   WNW   12.8   14.1   12.6  1024.6  0.00  0.00   0.014   0.000   20.1    50    9.4   19.4   9.29  .0751    118    1    100.0    5 
 4/02/16  14:00   14.2   14.3   14.2    77   10.2   9.0     W   0.75  17.0   WNW   12.7   14.0   12.4  1024.6  0.00  0.00   0.014   0.000   20.1    50    9.4   19.4   9.29  .0751    116    1    100.0    5 
 4/02/16  14:05   14.2   14.2   14.2    77   10.2  12.0     W   1.00  20.0   WNW   11.6   13.9   11.4  1024.5  0.00  0.00   0.014   0.000   20.1    50    9.4   19.4   9.29  .0751    116    1    100.0    5 
 4/02/16  14:10   14.2   14.2   14.2    77   10.2  10.0   WNW   0.83  17.0   WNW   12.3   14.0   12.1  1024.5  0.00  0.00   0.014   0.000   20.2    50    9.5   19.5   9.28  .0751    116    1    100.0    5 
 4/02/16  14:15   14.3   14.3   14.3    76   10.2  12.0   WNW   1.00  20.0     W   11.8   14.1   11.6  1024.4  0.00  0.00   0.014   0.000   20.2    50    9.5   19.5   9.28  .0751    116    1    100.0    5 
 4/02/16  14:20   14.4   14.4   14.3    75   10.1   9.0   WNW   0.75  15.0   WNW   12.9   14.2   12.7  1024.5  0.00  0.00   0.014   0.000   20.2    50    9.5   19.5   9.28  .0751    117    1    100.0    5 
 4/02/16  14:25   14.4   14.4   14.4    76   10.2  10.0     W   0.83  15.0    NW   12.5   14.2   12.3  1024.6  0.00  0.00   0.014   0.000   20.3    50    9.5   19.5   9.28  .0751    116    1    100.0    5 
 4/02/16  14:30   14.3   14.4   14.3    76   10.1   9.0     W   0.75  15.0   WNW   12.7   14.1   12.5  1024.5  0.00  0.00   0.014   0.000   20.3    50    9.5   19.5   9.28  .0751    115    1    100.0    5 
 4/02/16  14:35   14.2   14.3   14.2    76   10.0  11.0   WNW   0.92  18.0     W   11.9   13.9   11.7  1024.5  0.00  0.00   0.014   0.000   20.3    50    9.6   19.6   9.28  .0751    116    1    100.0    5 
 4/02/16  14:40   14.1   14.2   14.1    77   10.1   9.0     W   0.75  16.0     W   12.6   13.9   12.3  1024.5  0.00  0.00   0.015   0.000   20.3    50    9.6   19.6   9.28  .0751    116    1    100.0    5 
 4/02/16  14:45   14.2   14.2   14.1    77   10.2  10.0   WNW   0.83  18.0   WNW   12.3   13.9   12.1  1024.6  0.00  0.00   0.014   0.000   20.3    50    9.6   19.6   9.28  .0751    117    1    100.0    5 
 4/02/16  14:50   14.2   14.2   14.2    76   10.0  11.0   WNW   0.92  17.0   WNW   12.0   14.0   11.8  1024.6  0.00  0.00   0.014   0.000   20.4    50    9.6   19.6   9.28  .0751    117    1    100.0    5 
 4/02/16  14:55   14.4   14.4   14.2    76   10.2   8.0   WNW   0.67  16.0     W   13.3   14.2   13.1  1024.7  0.00  0.00   0.014   0.000   20.4    50    9.7   19.7   9.27  .0751    116    1    100.0    5 
 4/02/16  15:00   14.4   14.4   14.4    75   10.0  11.0     W   0.92  19.0   WNW   12.2   14.1   11.9  1024.7  0.00  0.00   0.014   0.000   20.4    50    9.7   19.7   9.27  .0751    117    1    100.0    5 
 4/02/16  15:05   14.4   14.4   14.4    76   10.2   8.0     W   0.67  15.0    NW   13.3   14.2   13.1  1024.7  0.00  0.00   0.014   0.000   20.5    50    9.7   19.7   9.27  .0750    116    1    100.0    5 
 4/02/16  15:10   14.4   14.4   14.4    75   10.0   9.0   WNW   0.75  18.0   WNW   12.9   14.1   12.6  1024.8  0.00  0.00   0.014   0.000   20.5    51   10.0   19.8   9.47  .0750    117    1    100.0    5 
 4/02/16  15:15   14.3   14.4   14.3    76   10.1   8.0   WNW   0.67  16.0     W   13.2   14.1   12.9  1024.8  0.00  0.00   0.014   0.000   20.6    51   10.1   19.8   9.47  .0750    117    1    100.0    5 
 4/02/16  15:20   14.1   14.3   14.1    76    9.9  10.0   WNW   0.83  19.0    NW   12.2   13.8   11.9  1024.8  0.00  0.00   0.015   0.000   20.6    51   10.1   19.8   9.47  .0750    116    1    100.0    5 
 4/02/16  15:25   13.9   14.1   13.9    76    9.8  10.0   WNW   0.83  17.0     W   12.0   13.7   11.7  1024.9  0.00  0.00   0.015   0.000   20.6    51   10.1   19.9   9.47  .0750    117    1    100.0    5 
 4/02/16  15:30   13.9   13.9   13.9    77    9.9   6.0   WNW   0.50  12.0   WNW   13.3   13.7   13.1  1025.0  0.00  0.00   0.015   0.000   20.6    50    9.8   19.8   9.27  .0750    116    1    100.0    5 
 4/02/16  15:35   14.0   14.0   13.9    77   10.0   6.0   WNW   0.50  10.0   WNW   13.4   13.8   13.2  1025.0  0.00  0.00   0.015   0.000   20.7    50    9.9   19.8   9.27  .0750    117    1    100.0    5 
 4/02/16  15:40   14.1   14.1   14.0    77   10.1   6.0     W   0.50  11.0   WNW   13.6   13.8   13.3  1025.1  0.00  0.00   0.015   0.000   20.7    50    9.9   19.8   9.27  .0750    115    1    100.0    5 
 4/02/16  15:45   14.1   14.1   14.1    78   10.3   4.0     W   0.33   8.0   WSW   14.1   13.9   13.9  1025.1  0.00  0.00   0.015   0.000   20.7    50    9.9   19.8   9.27  .0750    117    1    100.0    5 
 4/02/16  15:50   14.0   14.2   14.0    77   10.0   6.0   WSW   0.50  10.0   WSW   13.4   13.8   13.2  1025.2  0.00  0.00   0.015   0.000   20.7    50    9.9   19.9   9.26  .0750    117    1    100.0    5 
 4/02/16  15:55   12.4   14.0   12.4    79    8.8   8.0   WSW   0.67  10.0    SW   10.9   12.2   10.8  1025.2  0.00  0.00   0.021   0.000   20.7    50    9.9   19.9   9.26  .0750    117    1    100.0    5 
 4/02/16  16:00   11.6   12.3   11.6    84    9.0   8.0   WSW   0.67  11.0   WSW   10.0   11.6    9.9  1025.3  0.00  0.00   0.023   0.000   20.7    50    9.9   19.9   9.26  .0750    118    1    100.0    5 
 4/02/16  16:05   11.4   11.6   11.4    85    9.0   8.0   WSW   0.67  11.0   WSW    9.7   11.4    9.7  1025.3  0.00  0.00   0.024   0.000   20.8    50   10.0   19.9   9.26  .0750    117    1    100.0    5 
 4/02/16  16:10   11.4   11.4   11.4    86    9.2   7.0   WSW   0.58   9.0   WSW   10.2   11.4   10.2  1025.3  0.00  0.00   0.024   0.000   20.8    50   10.0   19.9   9.26  .0750    117    1    100.0    5 
 4/02/16  16:15   11.8   11.8   11.4    86    9.5   5.0     W   0.42  10.0   WSW   11.1   11.7   11.0  1025.4  0.00  0.00   0.023   0.000   20.8    50   10.0   19.9   9.26  .0750    117    1    100.0    5 
 4/02/16  16:20   11.7   11.9   11.7    85    9.2   7.0   WSW   0.58  11.0    SW   10.4   11.6   10.4  1025.4  0.00  0.00   0.023   0.000   20.8    50   10.0   19.9   9.26  .0750    117    1    100.0    5 
 4/02/16  16:25   11.2   11.7   11.2    86    8.9   9.0   WSW   0.75  12.0   WSW    9.1   11.2    9.1  1025.4  0.00  0.00   0.025   0.000   20.8    50   10.0   19.9   9.26  .0750    116    1    100.0    5 
 4/02/16  16:30   11.0   11.2   10.9    87    8.9   8.0   WSW   0.67  11.0   WSW    9.3   11.1    9.3  1025.5  0.00  0.00   0.025   0.000   20.8    50   10.0   19.9   9.26  .0750    117    1    100.0    5 
 4/02/16  16:35   10.9   11.0   10.9    88    9.0   8.0   WSW   0.67  12.0   WSW    9.2   11.0    9.2  1025.5  0.00  0.00   0.026   0.000   20.8    50   10.0   19.9   9.26  .0750    116    1    100.0    5 
 4/02/16  16:40   10.7   10.9   10.7    88    8.8   8.0   WSW   0.67  13.0   WSW    8.9   10.8    9.0  1025.5  0.00  0.00   0.026   0.000   20.8    50   10.0   19.9   9.26  .0750    117    1    100.0    5 
 4/02/16  16:45   10.6   10.7   10.6    89    8.9   8.0   WSW   0.67  11.0     W    8.8   10.7    8.9  1025.6  0.00  0.00   0.027   0.000   20.8    50   10.0   19.9   9.26  .0750    116    1    100.0    5 
 4/02/16  16:50   10.6   10.7   10.6    89    8.9   8.0   WSW   0.67  11.0     W    8.8   10.7    8.9  1025.6  0.00  0.00   0.027   0.000   20.8    50   10.0   19.9   9.26  .0750    117    1    100.0    5 
 4/02/16  16:55   10.7   10.7   10.6    89    9.0   7.0   WSW   0.58  10.0     W    9.3   10.8    9.4  1025.6  0.00  0.00   0.026   0.000   20.8    50   10.0   19.9   9.26  .0750    116    1    100.0    5 
 4/02/16  17:00   10.7   10.9   10.7    88    8.8   8.0   WSW   0.67  10.0     W    8.8   10.7    8.9  1025.6  0.00  0.00   0.027   0.000   20.8    50   10.0   19.9   9.26  .0750    116    1    100.0    5 
 4/02/16  17:05   10.3   10.7   10.3    89    8.5   8.0   WSW   0.67  11.0    SW    8.4   10.4    8.5  1025.6  0.00  0.00   0.028   0.000   20.8    50   10.0   19.9   9.26  .0750    117    1    100.0    5 
 4/02/16  17:10   10.1   10.3   10.1    90    8.5   8.0   WSW   0.67  11.0   WSW    8.2   10.3    8.3  1025.7  0.00  0.00   0.029   0.000   20.8    50   10.0   19.9   9.26  .0750    117    1    100.0    5 
 4/02/16  17:15   10.1   10.1   10.1    90    8.5   8.0   WSW   0.67  11.0   WSW    8.1   10.2    8.3  1025.7  0.00  0.00   0.029   0.000   20.9    50   10.1   20.0   9.26  .0750    117    1    100.0    5 
 4/02/16  17:20   10.1   10.1   10.1    91    8.7   8.0     W   0.67  12.0   WSW    8.1   10.2    8.3  1025.6  0.00  0.00   0.029   0.000   20.9    50   10.1   20.0   9.26  .0750    117    1    100.0    5 
 4/02/16  17:25   10.2   10.2   10.1    91    8.8   7.0     W   0.58  11.0   WSW    8.7   10.3    8.8  1025.7  0.00  0.00   0.028   0.000   20.9    50   10.1   20.0   9.26  .0750    117    1    100.0    5 
 4/02/16  17:30   10.2   10.2   10.2    91    8.8   7.0     W   0.58  10.0     W    8.7   10.4    8.9  1025.7  0.00  0.00   0.028   0.000   20.9    50   10.1   20.0   9.26  .0750    116    1    100.0    5 
 4/02/16  17:35   10.3   10.3   10.2    91    8.9   7.0     W   0.58  11.0     W    8.8   10.5    9.0  1025.8  0.00  0.00   0.028   0.000   20.9    50   10.1   20.0   9.26  .0750    117    1    100.0    5 
 4/02/16  17:40   10.5   10.5   10.3    91    9.1   6.0     W   0.50   9.0     W    9.3   10.7    9.5  1025.8  0.00  0.00   0.027   0.000   20.9    50   10.1   20.0   9.26  .0750    117    1    100.0    5 
 4/02/16  17:45   10.6   10.6   10.5    91    9.2   6.0     W   0.50  11.0     W    9.4   10.7    9.6  1025.9  0.00  0.00   0.027   0.000   20.9    51   10.4   20.1   9.46  .0750    117    1    100.0    5 
 4/02/16  17:50   10.5   10.7   10.5    90    8.9   6.0   WSW   0.50  10.0   WSW    9.3   10.6    9.4  1025.9  0.00  0.00   0.027   0.000   20.9    53   10.9   20.2   9.86  .0750    117    1    100.0    5 
 4/02/16  17:55   10.2   10.4   10.2    90    8.6   9.0   WSW   0.75  12.0   WSW    7.9   10.3    8.1  1026.1  0.00  0.00   0.028   0.000   20.9    53   11.0   20.2   9.86  .0749    115    1    100.0    5 
 4/02/16  18:00   10.1   10.2   10.1    91    8.7   8.0   WSW   0.67  11.0   WSW    8.2   10.3    8.3  1026.0  0.00  0.00   0.029   0.000   20.9    53   11.0   20.2   9.86  .0749    116    1    100.0    5 
 4/02/16  18:05   10.2   10.2   10.1    91    8.8   7.0   WSW   0.58  10.0   WSW    8.7   10.3    8.8  1026.1  0.00  0.00   0.028   0.000   20.9    52   10.7   20.2   9.66  .0750    117    1    100.0    5 
 4/02/16  18:10   10.2   10.2   10.1    91    8.8   8.0     W   0.67  11.0     W    8.3   10.3    8.4  1026.1  0.00  0.00   0.028   0.000   20.9    52   10.7   20.2   9.66  .0750    118    1    100.0    5 
 4/02/16  18:15   10.3   10.3   10.2    91    8.9   7.0     W   0.58  12.0     W    8.8   10.4    8.9  1026.1  0.00  0.00   0.028   0.000   21.0    52   10.8   20.2   9.65  .0749    117    1    100.0    5 
 4/02/16  18:20   10.4   10.4   10.3    91    9.0   7.0     W   0.58  11.0   WSW    8.9   10.6    9.1  1026.1  0.00  0.00   0.028   0.000   21.0    52   10.8   20.2   9.65  .0750    115    1    100.0    5 
 4/02/16  18:25   10.3   10.4   10.3    90    8.8   8.0   WSW   0.67  11.0     W    8.4   10.4    8.6  1026.2  0.00  0.00   0.028   0.000   21.0    52   10.8   20.2   9.65  .0750    117    1    100.0    5 
 4/02/16  18:30   10.2   10.3   10.2    91    8.8   8.0   WSW   0.67  12.0   WSW    8.3   10.3    8.4  1026.2  0.00  0.00   0.028   0.000   21.1    52   10.8   20.2   9.65  .0749    116    1    100.0    5 
 4/02/16  18:35   10.2   10.2   10.2    91    8.8   7.0     W   0.58  11.0     W    8.7   10.4    8.9  1026.2  0.00  0.00   0.028   0.000   21.1    51   10.5   20.2   9.45  .0750    116    1    100.0    5 
 4/02/16  18:40   10.4   10.4   10.2    91    9.0   8.0     W   0.67  15.0     W    8.5   10.6    8.7  1026.2  0.00  0.00   0.028   0.000   21.1    51   10.5   20.2   9.45  .0750    117    1    100.0    5 
 4/02/16  18:45   10.6   10.6   10.4    91    9.1  10.0     W   0.83  16.0     W    8.1   10.7    8.2  1026.2  0.00  0.00   0.027   0.000   21.1    51   10.5   20.2   9.45  .0750    117    1    100.0    5 
 4/02/16  18:50   10.7   10.7   10.6    90    9.1   9.0     W   0.75  14.0   WNW    8.5   10.8    8.6  1026.3  0.00  0.00   0.027   0.000   21.1    51   10.6   20.2   9.45  .0749    116    1    100.0    5 
 4/02/16  18:55   10.7   10.7   10.7    90    9.1   9.0     W   0.75  14.0   WNW    8.6   10.8    8.7  1026.4  0.00  0.00   0.026   0.000   21.1    51   10.6   20.2   9.45  .0750    117    1    100.0    5 
 4/02/16  19:00   10.7   10.7   10.7    90    9.1   9.0     W   0.75  15.0     W    8.6   10.8    8.7  1026.3  0.00  0.00   0.026   0.000   21.1    51   10.6   20.2   9.45  .0749    115    1    100.0    5 
 4/02/16  19:05   10.7   10.8   10.7    89    9.0   8.0     W   0.67  12.0   WNW    8.9   10.8    9.1  1026.3  0.00  0.00   0.026   0.000   21.1    51   10.6   20.2   9.45  .0749    117    1    100.0    5 
 4/02/16  19:10   10.7   10.7   10.7    89    9.0   9.0   WNW   0.75  13.0   WNW    8.6   10.8    8.7  1026.3  0.00  0.00   0.026   0.000   21.2    51   10.6   20.3   9.45  .0749    117    1    100.0    5 
 4/02/16  19:15   10.7   10.7   10.7    89    9.0   7.0   WNW   0.58  11.0     W    9.3   10.8    9.4  1026.1  0.00  0.00   0.026   0.000   21.2    51   10.6   20.3   9.45  .0749    118    1    100.0    5 
 4/02/16  19:20   10.7   10.7   10.7    89    9.0   8.0     W   0.67  11.0    NW    8.9   10.8    9.1  1026.3  0.00  0.00   0.026   0.000   21.2    51   10.6   20.3   9.45  .0749    116    1    100.0    5 
 4/02/16  19:25   10.7   10.7   10.7    89    8.9   7.0     W   0.58  10.0     W    9.2   10.8    9.3  1026.3  0.00  0.00   0.027   0.000   21.2    51   10.6   20.3   9.45  .0749    117    1    100.0    5 
 4/02/16  19:30   10.6   10.7   10.6    89    8.9   6.0     W   0.50   9.0     W    9.4   10.7    9.6  1026.3  0.00  0.00   0.027   0.000   21.2    51   10.7   20.3   9.45  .0749    116    1    100.0    5 
 4/02/16  19:35   10.6   10.6   10.6    89    8.8   6.0     W   0.50   9.0     W    9.4   10.7    9.5  1026.4  0.00  0.00   0.027   0.000   21.2    51   10.7   20.3   9.45  .0749    117    1    100.0    5 
 4/02/16  19:40   10.5   10.6   10.5    89    8.8   6.0     W   0.50   9.0     W    9.3   10.6    9.4  1026.4  0.00  0.00   0.027   0.000   21.2    51   10.7   20.3   9.45  .0749    117    1    100.0    5 
 4/02/16  19:45   10.5   10.5   10.5    90    8.9   6.0     W   0.50   9.0     W    9.3   10.6    9.4  1026.3  0.00  0.00   0.027   0.000   21.3    51   10.7   20.4   9.44  .0749    117    1    100.0    5 
 4/02/16  19:50   10.4   10.5   10.4    90    8.9   7.0     W   0.58   9.0     W    9.0   10.6    9.1  1026.4  0.00  0.00   0.027   0.000   21.3    51   10.7   20.4   9.44  .0749    117    1    100.0    5 
 4/02/16  19:55   10.5   10.5   10.4    90    8.9   6.0     W   0.50   9.0     W    9.3   10.6    9.4  1026.3  0.00  0.00   0.027   0.000   21.3    51   10.7   20.4   9.44  .0749    117    1    100.0    5 
 4/02/16  20:00   10.5   10.5   10.4    90    8.9   5.0     W   0.42   7.0     W    9.6   10.6    9.7  1026.3  0.00  0.00   0.027   0.000   21.3    51   10.8   20.5   9.44  .0749    117    1    100.0    5 
 4/02/16  20:05   10.5   10.5   10.5    90    8.9   6.0     W   0.50   9.0     W    9.3   10.6    9.4  1026.3  0.00  0.00   0.027   0.000   21.3    51   10.8   20.5   9.44  .0749    117    1    100.0    5 
 4/02/16  20:10   10.5   10.5   10.5    90    8.9   6.0     W   0.50   9.0     W    9.3   10.6    9.4  1026.3  0.00  0.00   0.027   0.000   21.3    51   10.8   20.5   9.44  .0749    116    1    100.0    5 
 4/02/16  20:15   10.6   10.6   10.5    90    9.0   5.0     W   0.42   9.0     W    9.7   10.7    9.8  1026.3  0.00  0.00   0.027   0.000   21.3    51   10.8   20.5   9.44  .0749    117    1    100.0    5 
 4/02/16  20:20   10.6   10.6   10.6    90    9.0   5.0     W   0.42   8.0   WNW    9.7   10.7    9.8  1026.2  0.00  0.00   0.027   0.000   21.4    51   10.8   20.6   9.44  .0749    117    1    100.0    5 
 4/02/16  20:25   10.5   10.6   10.5    90    8.9   5.0   WSW   0.42   7.0     W    9.6   10.6    9.7  1026.2  0.00  0.00   0.027   0.000   21.4    51   10.8   20.6   9.44  .0749    116    1    100.0    5 
 4/02/16  20:30   10.4   10.5   10.4    90    8.9   5.0     W   0.42   8.0     W    9.6   10.6    9.7  1026.2  0.00  0.00   0.027   0.000   21.4    51   10.8   20.6   9.44  .0749    116    1    100.0    5 
 4/02/16  20:35   10.4   10.4   10.4    90    8.9   5.0     W   0.42   8.0     W    9.6   10.6    9.7  1026.1  0.00  0.00   0.027   0.000   21.4    51   10.8   20.6   9.44  .0748    117    1    100.0    5 
 4/02/16  20:40   10.6   10.6   10.4    90    9.0   4.0     W   0.33   7.0     W   10.0   10.7   10.1  1026.2  0.00  0.00   0.027   0.000   21.4    51   10.9   20.7   9.44  .0748    117    1    100.0    5 
 4/02/16  20:45   10.4   10.6   10.4    90    8.8   6.0   WSW   0.50   9.0    SW    9.2   10.5    9.3  1026.4  0.00  0.00   0.028   0.000   21.4    51   10.9   20.7   9.44  .0748    116    1    100.0    5 
 4/02/16  20:50   10.0   10.4   10.0    90    8.4   6.0   WSW   0.50   8.0   WSW    8.7   10.2    8.9  1026.4  0.00  0.00   0.029   0.000   21.4    51   10.9   20.7   9.44  .0749    116    1    100.0    5 
 4/02/16  20:55    9.7   10.0    9.7    91    8.3   6.0    SW   0.50   8.0    SW    8.4    9.9    8.6  1026.4  0.00  0.00   0.030   0.000   21.5    51   10.9   20.7   9.44  .0748    117    1    100.0    5 
 4/02/16  21:00    9.6    9.7    9.6    91    8.2   5.0   WSW   0.42   6.0    SW    8.4    9.7    8.6  1026.3  0.00  0.00   0.030   0.000   21.5    51   10.9   20.7   9.44  .0748    117    1    100.0    5 
 4/02/16  21:05    9.6    9.6    9.6    92    8.3   4.0   WSW   0.33   6.0     W    8.8    9.8    9.1  1026.4  0.00  0.00   0.030   0.000   21.6    51   11.0   20.8   9.43  .0748    117    1    100.0    5 
 4/02/16  21:10    9.6    9.6    9.6    92    8.4   3.0     W   0.25   5.0     W    9.4    9.8    9.6  1026.4  0.00  0.00   0.030   0.000   21.6    51   11.0   20.8   9.43  .0748    117    1    100.0    5 
 4/02/16  21:15    9.6    9.6    9.6    92    8.4   2.0   WSW   0.17   4.0   WSW    9.6    9.8    9.8  1026.4  0.00  0.00   0.030   0.000   21.6    51   11.0   20.9   9.43  .0748    117    1    100.0    5 
 4/02/16  21:20    9.6    9.6    9.6    92    8.3   4.0   WSW   0.33   6.0   WSW    8.8    9.8    9.1  1026.4  0.00  0.00   0.030   0.000   21.6    51   11.0   20.9   9.43  .0748    118    1    100.0    5 
 4/02/16  21:25    9.5    9.6    9.5    93    8.4   5.0   WSW   0.42   7.0    SW    8.4    9.7    8.6  1026.4  0.00  0.00   0.031   0.000   21.6    51   11.0   20.9   9.43  .0748    117    1    100.0    5 
 4/02/16  21:30    9.4    9.5    9.4    93    8.4   5.0   WSW   0.42   6.0   WSW    8.3    9.7    8.6  1026.3  0.00  0.00   0.031   0.000   21.6    51   11.0   20.9   9.43  .0748    117    1    100.0    5 
 4/02/16  21:35    9.4    9.4    9.4    93    8.4   5.0   WSW   0.42   6.0   WSW    8.3    9.7    8.6  1026.4  0.00  0.00   0.031   0.000   21.7    51   11.1   20.9   9.43  .0748    117    1    100.0    5 
 4/02/16  21:40    9.4    9.4    9.4    93    8.3   4.0   WSW   0.33   6.0   WSW    8.7    9.6    8.9  1026.4  0.00  0.00   0.031   0.000   21.7    51   11.1   20.9   9.43  .0748    116    1    100.0    5 
 4/02/16  21:45    9.4    9.4    9.4    94    8.5   5.0   WSW   0.42   7.0   WSW    8.3    9.7    8.6  1026.4  0.00  0.00   0.031   0.000   21.7    51   11.1   20.9   9.43  .0748    117    1    100.0    5 
 4/02/16  21:50    9.5    9.5    9.4    94    8.6   7.0   WSW   0.58   8.0   WSW    7.8    9.8    8.1  1026.4  0.00  0.00   0.031   0.000   21.7    51   11.1   21.0   9.43  .0748    117    1    100.0    5 
 4/02/16  21:55    9.5    9.5    9.5    94    8.6   5.0   WSW   0.42   8.0     W    8.4    9.8    8.7  1026.3  0.00  0.00   0.031   0.000   21.7    51   11.1   21.0   9.43  .0748    117    1    100.0    5 
 4/02/16  22:00    9.5    9.6    9.5    94    8.6   6.0   WSW   0.50   9.0   WSW    8.1    9.8    8.4  1026.2  0.00  0.00   0.031   0.000   21.7    51   11.1   21.0   9.43  .0748    117    1    100.0    5 
 4/02/16  22:05    9.4    9.5    9.4    94    8.5   6.0    SW   0.50   8.0   WSW    8.1    9.7    8.3  1026.2  0.00  0.00   0.031   0.000   21.8    51   11.2   21.1   9.43  .0747    117    1    100.0    5 
 4/02/16  22:10    9.4    9.4    9.4    94    8.5   6.0   WSW   0.50   9.0   WSW    8.0    9.7    8.3  1026.1  0.00  0.00   0.031   0.000   21.8    51   11.2   21.1   9.43  .0747    117    1    100.0    5 
 4/02/16  22:15    9.4    9.4    9.4    95    8.7   7.0   WSW   0.58   9.0   WSW    7.8    9.7    8.1  1026.1  0.00  0.00   0.031   0.000   21.8    51   11.2   21.1   9.43  .0747    117    1    100.0    5 
 4/02/16  22:20    9.4    9.4    9.4    95    8.6   6.0   WSW   0.50   8.0    SW    8.0    9.7    8.3  1026.0  0.00  0.00   0.031   0.000   21.8    51   11.2   21.2   9.42  .0747    117    1    100.0    5 
 4/02/16  22:25    9.4    9.4    9.4    95    8.6   5.0   WSW   0.42   7.0   WSW    8.3    9.7    8.6  1026.1  0.00  0.00   0.031   0.000   21.8    51   11.2   21.2   9.42  .0747    118    1    100.0    5 
 4/02/16  22:30    9.4    9.4    9.3    95    8.6   6.0   WSW   0.50   9.0   WSW    8.0    9.7    8.3  1026.1  0.00  0.00   0.031   0.000   21.8    51   11.2   21.2   9.42  .0747    116    1    100.0    5 
 4/02/16  22:35    9.4    9.4    9.4    95    8.7   7.0     W   0.58  11.0     W    7.8    9.7    8.1  1026.0  0.00  0.00   0.031   0.000   21.8    51   11.2   21.2   9.42  .0747    117    1    100.0    5 
 4/02/16  22:40    9.5    9.5    9.4    95    8.7   7.0     W   0.58  10.0     W    7.8    9.8    8.1  1025.9  0.00  0.00   0.031   0.000   21.8    51   11.2   21.2   9.42  .0747    117    1    100.0    5 
 4/02/16  22:45    9.6    9.6    9.5    95    8.8   7.0     W   0.58  10.0     W    7.9    9.8    8.2  1026.0  0.00  0.00   0.030   0.000   21.8    51   11.2   21.2   9.42  .0747    115    1    100.0    5 
 4/02/16  22:50    9.6    9.6    9.6    95    8.8   8.0     W   0.67  12.0     W    7.5    9.8    7.8  1025.9  0.00  0.00   0.030   0.000   21.8    51   11.2   21.2   9.42  .0747    115    1    100.0    5 
 4/02/16  22:55    9.6    9.6    9.6    95    8.8   7.0     W   0.58  14.0     W    7.9    9.8    8.2  1025.9  0.00  0.00   0.030   0.000   21.9    51   11.3   21.3   9.42  .0747    117    1    100.0    5 
 4/02/16  23:00    9.6    9.7    9.6    95    8.8   6.0     W   0.50   9.0   WNW    8.3    9.9    8.6  1026.0  0.00  0.00   0.030   0.000   21.8    51   11.2   21.2   9.42  .0747    114    1    100.0    5 
 4/02/16  23:05    9.7    9.7    9.6    95    8.9   6.0     W   0.50  10.0     W    8.3    9.9    8.6  1025.9  0.00  0.00   0.030   0.000   21.9    51   11.3   21.3   9.42  .0747    117    1    100.0    5 
 4/02/16  23:10    9.7    9.7    9.7    95    8.9   6.0     W   0.50  10.0    SW    8.3    9.9    8.6  1026.0  0.00  0.00   0.030   0.000   21.9    51   11.3   21.3   9.42  .0747    117    1    100.0    5 
 4/02/16  23:15    9.7    9.7    9.7    95    9.0   7.0     W   0.58  11.0   WSW    8.1   10.0    8.4  1026.0  0.00  0.00   0.030   0.000   21.8    51   11.2   21.2   9.42  .0747    117    1    100.0    5 
 4/02/16  23:20    9.7    9.7    9.7    95    8.9   7.0     W   0.58  10.0   WSW    8.1    9.9    8.3  1025.9  0.00  0.00   0.030   0.000   21.8    50   10.9   21.2   9.25  .0747    117    1    100.0    5 
 4/02/16  23:25    9.7    9.7    9.7    95    8.9   6.0   WSW   0.50   9.0   WSW    8.3    9.9    8.6  1025.9  0.00  0.00   0.030   0.000   21.8    50   10.9   21.2   9.25  .0747    116    1    100.0    5 
 4/02/16  23:30    9.7    9.7    9.7    95    8.9   6.0   WSW   0.50  10.0   WSW    8.3    9.9    8.6  1025.8  0.00  0.00   0.030   0.000   21.8    50   10.9   21.2   9.25  .0747    116    1    100.0    5 
 4/02/16  23:35    9.6    9.7    9.6    95    8.8   7.0   WSW   0.58   9.0   WSW    7.9    9.8    8.2  1025.9  0.00  0.00   0.030   0.000   21.8    50   10.9   21.2   9.25  .0747    116    1    100.0    5 
 4/02/16  23:40    9.6    9.6    9.6    95    8.8   6.0   WSW   0.50   9.0   WSW    8.2    9.8    8.4  1025.8  0.00  0.00   0.030   0.000   21.8    50   10.9   21.2   9.25  .0747    117    1    100.0    5 
 4/02/16  23:45    9.6    9.6    9.5    95    8.8   6.0   WSW   0.50  10.0   WSW    8.2    9.8    8.4  1025.9  0.00  0.00   0.030   0.000   21.8    50   10.9   21.2   9.25  .0747    117    1    100.0    5 
 4/02/16  23:50    9.5    9.6    9.5    95    8.7   7.0   WSW   0.58  11.0   WSW    7.8    9.8    8.1  1026.0  0.00  0.00   0.031   0.000   21.8    50   10.9   21.2   9.25  .0747    117    1    100.0    5 
 4/02/16  23:55    9.5    9.5    9.5    95    8.7   7.0   WSW   0.58  10.0     W    7.8    9.8    8.1  1025.9  0.00  0.00   0.031   0.000   21.8    50   10.9   21.1   9.25  .0747    117    1    100.0    5 
 5/02/16  00:00    9.5    9.5    9.5    95    8.7   6.0   WSW   0.50  10.0     W    8.1    9.8    8.4  1025.9  0.00  0.00   0.031   0.000   21.8    50   10.9   21.1   9.25  .0747    116    1    100.0    5 
 5/02/16   0:05    9.5    9.5    9.5    95    8.7  10.0   WSW   0.83  13.0   WSW    6.8    9.8    7.1  1025.8  0.00  0.00   0.031   0.000   21.8    50   10.9   21.1   9.25  .0747    116    1    100.0    5 
 5/02/16   0:10    9.5    9.5    9.5    95    8.7  12.0   WSW   1.00  14.0    SW    6.3    9.8    6.6  1025.8  0.00  0.00   0.031   0.000   21.8    50   10.9   21.1   9.25  .0747    117    1    100.0    5 
 5/02/16   0:15    9.5    9.5    9.5    95    8.7  10.0   WSW   0.83  14.0   WSW    6.8    9.8    7.1  1025.8  0.00  0.00   0.031   0.000   21.8    50   10.9   21.1   9.25  .0747    116    1    100.0    5 
 5/02/16   0:20    9.6    9.6    9.5    95    8.8  10.0   WSW   0.83  13.0   WSW    6.8    9.8    7.1  1025.8  0.00  0.00   0.030   0.000   21.8    50   10.9   21.1   9.25  .0747    117    1    100.0    5 
 5/02/16   0:25    9.6    9.6    9.6    95    8.8  10.0   WSW   0.83  13.0   WSW    6.8    9.8    7.1  1025.7  0.00  0.00   0.030   0.000   21.8    50   10.9   21.1   9.25  .0747    117    1    100.0    5 
 5/02/16   0:30    9.5    9.6    9.5    95    8.7   7.0   WSW   0.58   9.0   WSW    7.8    9.8    8.1  1025.6  0.00  0.00   0.031   0.000   21.7    50   10.8   21.0   9.25  .0747    116    1    100.0    5 
 5/02/16   0:35    9.5    9.5    9.5    95    8.7   6.0   WSW   0.50  10.0     W    8.1    9.8    8.4  1025.6  0.00  0.00   0.031   0.000   21.7    50   10.8   21.0   9.25  .0747    116    1    100.0    5 
 5/02/16   0:40    9.4    9.5    9.4    95    8.7   6.0   WSW   0.50   8.0   WSW    8.1    9.7    8.3  1025.5  0.00  0.00   0.031   0.000   21.7    50   10.8   21.0   9.25  .0747    117    1    100.0    5 
 5/02/16   0:45    9.4    9.4    9.4    95    8.6   6.0   WSW   0.50   9.0    SW    8.0    9.7    8.3  1025.3  0.00  0.00   0.031   0.000   21.7    50   10.8   21.0   9.25  .0747    117    1    100.0    5 
 5/02/16   0:50    9.4    9.4    9.3    95    8.6   6.0   WSW   0.50   9.0   WSW    8.0    9.7    8.3  1025.3  0.00  0.00   0.031   0.000   21.7    50   10.8   20.9   9.25  .0747    117    1    100.0    5 
 5/02/16   0:55    9.3    9.4    9.3    95    8.6   7.0   WSW   0.58  10.0   WSW    7.7    9.6    7.9  1025.4  0.00  0.00   0.031   0.000   21.7    50   10.8   20.9   9.25  .0747    118    1    100.0    5 
 5/02/16   1:00    9.3    9.3    9.3    95    8.6   7.0   WSW   0.58   9.0   WSW    7.7    9.6    7.9  1025.4  0.00  0.00   0.031   0.000   21.7    50   10.8   20.9   9.25  .0747    115    1    100.0    5 
 5/02/16   1:05    9.3    9.3    9.3    96    8.7   7.0   WSW   0.58   9.0   WSW    7.7    9.6    7.9  1025.4  0.00  0.00   0.031   0.000   21.7    50   10.8   20.9   9.25  .0747    117    1    100.0    5 
 5/02/16   1:10    9.3    9.3    9.3    96    8.7   7.0   WSW   0.58  11.0   WSW    7.7    9.6    7.9  1025.3  0.00  0.00   0.031   0.000   21.6    50   10.7   20.8   9.25  .0747    117    1    100.0    5 
 5/02/16   1:15    9.3    9.4    9.3    96    8.7   8.0     W   0.67  11.0     W    7.3    9.6    7.6  1025.3  0.00  0.00   0.031   0.000   21.7    50   10.8   20.9   9.25  .0747    115    1    100.0    5 
 5/02/16   1:20    9.4    9.4    9.3    96    8.8   6.0     W   0.50  10.0     W    8.0    9.7    8.3  1025.3  0.00  0.00   0.031   0.000   21.6    50   10.7   20.8   9.25  .0747    117    1    100.0    5 
 5/02/16   1:25    9.4    9.4    9.4    96    8.8   6.0     W   0.50  10.0   WSW    8.0    9.7    8.3  1025.2  0.00  0.00   0.031   0.000   21.6    50   10.7   20.8   9.25  .0747    116    1    100.0    5 
 5/02/16   1:30    9.4    9.4    9.4    96    8.8   7.0   WSW   0.58  10.0   WSW    7.7    9.7    8.0  1025.2  0.00  0.00   0.031   0.000   21.6    49   10.4   20.7   9.05  .0748    116    1    100.0    5 
 5/02/16   1:35    9.4    9.4    9.4    96    8.8   7.0   WSW   0.58  10.0   WSW    7.7    9.7    8.0  1025.3  0.00  0.00   0.031   0.000   21.6    49   10.4   20.7   9.05  .0748    117    1    100.0    5 
 5/02/16   1:40    9.4    9.4    9.4    96    8.8   7.0   WSW   0.58  10.0   WSW    7.7    9.7    8.0  1025.2  0.00  0.00   0.031   0.000   21.6    49   10.4   20.7   9.05  .0748    117    1    100.0    5 
 5/02/16   1:45    9.3    9.4    9.3    96    8.7   7.0   WSW   0.58  10.0   WSW    7.7    9.6    7.9  1025.1  0.00  0.00   0.031   0.000   21.6    49   10.4   20.7   9.05  .0748    117    1    100.0    5 
 5/02/16   1:50    9.3    9.4    9.3    96    8.7   7.0   WSW   0.58  10.0   WSW    7.7    9.6    7.9  1025.1  0.00  0.00   0.031   0.000   21.6    49   10.4   20.7   9.05  .0748    117    1    100.0    5 
 5/02/16   1:55    9.3    9.4    9.3    96    8.7   7.0   WSW   0.58  10.0   WSW    7.7    9.6    7.9  1025.2  0.00  0.00   0.031   0.000   21.5    49   10.3   20.6   9.05  .0748    117    1    100.0    5 
 5/02/16   2:00    9.4    9.4    9.3    96    8.8   7.0   WSW   0.58  10.0   WSW    7.7    9.7    8.0  1025.2  0.00  0.00   0.031   0.000   21.5    49   10.3   20.6   9.05  .0748    118    1    100.0    5 
 5/02/16   2:05    9.4    9.4    9.3    96    8.8   6.0   WSW   0.50  10.0     W    8.0    9.7    8.3  1025.1  0.00  0.00   0.031   0.000   21.5    49   10.3   20.6   9.05  .0748    117    1    100.0    5 
 5/02/16   2:10    9.4    9.4    9.4    96    8.8   6.0   WSW   0.50  10.0   WSW    8.0    9.7    8.3  1025.0  0.00  0.00   0.031   0.000   21.4    49   10.3   20.6   9.05  .0748    115    1    100.0    5 
 5/02/16   2:15    9.3    9.4    9.3    96    8.7   6.0   WSW   0.50   9.0   WSW    7.9    9.6    8.2  1024.9  0.00  0.00   0.031   0.000   21.4    49   10.3   20.6   9.05  .0748    117    1    100.0    5 
 5/02/16   2:20    9.3    9.3    9.3    96    8.7   6.0   WSW   0.50  10.0   WSW    7.9    9.6    8.2  1024.9  0.00  0.00   0.031   0.000   21.4    49   10.3   20.6   9.05  .0748    116    1    100.0    5 
 5/02/16   2:25    9.3    9.3    9.3    96    8.7   7.0   WSW   0.58   9.0   WSW    7.7    9.6    7.9  1024.8  0.00  0.00   0.031   0.000   21.4    49   10.2   20.5   9.05  .0748    117    1    100.0    5 
 5/02/16   2:30    9.3    9.3    9.3    96    8.7   8.0    SW   0.67  11.0    SW    7.2    9.6    7.4  1024.8  0.00  0.00   0.031   0.000   21.4    49   10.2   20.5   9.05  .0748    117    1    100.0    5 
 5/02/16   2:35    9.3    9.3    9.3    96    8.7   9.0    SW   0.75  12.0    SW    6.8    9.6    7.1  1024.7  0.00  0.00   0.031   0.000   21.4    49   10.2   20.5   9.05  .0748    117    1    100.0    5 
 5/02/16   2:40    9.3    9.3    9.3    96    8.7  10.0    SW   0.83  12.0    SW    6.6    9.6    6.8  1024.6  0.00  0.00   0.031   0.000   21.4    49   10.2   20.5   9.05  .0748    117    1    100.0    5 
 5/02/16   2:45    9.3    9.3    9.3    96    8.7  10.0    SW   0.83  12.0    SW    6.6    9.6    6.8  1024.6  0.00  0.00   0.031   0.000   21.3    49   10.2   20.4   9.05  .0748    116    1    100.0    5 
 5/02/16   2:50    9.3    9.3    9.3    96    8.7  10.0    SW   0.83  12.0    SW    6.6    9.6    6.8  1024.5  0.00  0.00   0.031   0.000   21.3    49   10.2   20.4   9.05  .0748    117    1    100.0    5 
 5/02/16   2:55    9.2    9.3    9.2    96    8.6  10.0    SW   0.83  12.0    SW    6.5    9.5    6.8  1024.5  0.00  0.00   0.032   0.000   21.3    49   10.2   20.4   9.05  .0748    116    1    100.0    5 
 5/02/16   3:00    9.2    9.2    9.2    96    8.6   9.0    SW   0.75  11.0    SW    6.8    9.5    7.1  1024.5  0.00  0.00   0.032   0.000   21.3    49   10.1   20.3   9.05  .0748    117    1    100.0    5 
 5/02/16   3:05    9.2    9.2    9.2    97    8.8   9.0   WSW   0.75  10.0   WSW    6.8    9.5    7.1  1024.4  0.00  0.00   0.032   0.000   21.3    49   10.1   20.3   9.05  .0748    117    1    100.0    5 
 5/02/16   3:10    9.2    9.2    9.2    96    8.6   9.0   WSW   0.75  11.0    SW    6.8    9.5    7.1  1024.5  0.00  0.00   0.032   0.000   21.2    49   10.1   20.3   9.05  .0748    117    1    100.0    5 
 5/02/16   3:15    9.2    9.2    9.2    96    8.6   7.0   WSW   0.58  11.0   WSW    7.5    9.5    7.8  1024.3  0.00  0.00   0.032   0.000   21.2    49   10.1   20.3   9.05  .0748    117    1    100.0    5 
 5/02/16   3:20    9.2    9.2    9.2    96    8.6   7.0   WSW   0.58  10.0   WSW    7.4    9.4    7.7  1024.2  0.00  0.00   0.032   0.000   21.2    49   10.1   20.3   9.05  .0748    117    1    100.0    5 
 5/02/16   3:25    9.2    9.2    9.2    96    8.6   9.0   WSW   0.75  13.0    SW    6.7    9.4    7.0  1024.1  0.00  0.00   0.032   0.000   21.2    49   10.0   20.2   9.05  .0748    117    1    100.0    5 
 5/02/16   3:30    9.2    9.2    9.2    96    8.6  10.0   WSW   0.83  12.0   WSW    6.4    9.4    6.7  1024.1  0.00  0.00   0.032   0.000   21.2    49   10.0   20.2   9.05  .0748    117    1    100.0    5 
 5/02/16   3:35    9.1    9.2    9.1    96    8.5   9.0   WSW   0.75  12.0   WSW    6.7    9.4    6.9  1024.1  0.00  0.00   0.032   0.000   21.2    49   10.0   20.2   9.05  .0748    117    1    100.0    5 
 5/02/16   3:40    9.1    9.1    9.1    96    8.5   8.0   WSW   0.67  11.0   WSW    7.0    9.4    7.3  1024.1  0.00  0.00   0.032   0.000   21.1    49   10.0   20.1   9.05  .0748    116    1    100.0    5 
 5/02/16   3:45    9.1    9.2    9.1    96    8.5   7.0   WSW   0.58   9.0   WSW    7.4    9.4    7.7  1024.0  0.00  0.00   0.032   0.000   21.1    49   10.0   20.1   9.05  .0748    117    1    100.0    5 
 5/02/16   3:50    9.1    9.2    9.1    96    8.5   6.0   WSW   0.50   9.0   WSW    7.7    9.4    7.9  1024.0  0.00  0.00   0.032   0.000   21.1    49   10.0   20.1   9.05  .0748    117    1    100.0    5 
 5/02/16   3:55    9.1    9.2    9.1    96    8.5   6.0   WSW   0.50   8.0   WSW    7.7    9.4    7.9  1023.9  0.00  0.00   0.032   0.000   21.1    49   10.0   20.1   9.05  .0748    117    1    100.0    5 
 5/02/16   4:00    9.1    9.1    9.1    96    8.5   6.0   WSW   0.50  10.0   WSW    7.6    9.3    7.9  1023.9  0.00  0.00   0.032   0.000   21.1    49    9.9   20.1   9.05  .0748    117    1    100.0    5 
 5/02/16   4:05    9.1    9.1    9.1    96    8.5  10.0   WSW   0.83  13.0   WSW    6.3    9.3    6.6  1023.8  0.00  0.00   0.032   0.000   21.1    49    9.9   20.1   9.05  .0748    115    1    100.0    5 
 5/02/16   4:10    9.1    9.1    9.1    96    8.5  10.0    SW   0.83  12.0   WSW    6.3    9.3    6.6  1023.7  0.00  0.00   0.032   0.000   21.1    49    9.9   20.1   9.05  .0748    116    1    100.0    5 
 5/02/16   4:15    9.1    9.1    9.1    96    8.5   9.0    SW   0.75  12.0    SW    6.7    9.4    6.9  1023.6  0.00  0.00   0.032   0.000   21.1    49    9.9   20.1   9.05  .0748    117    1    100.0    5 
 5/02/16   4:20    9.1    9.1    9.1    96    8.5  11.0    SW   0.92  14.0    SW    6.1    9.4    6.3  1023.5  0.00  0.00   0.032   0.000   21.0    49    9.9   20.1   9.05  .0748    117    1    100.0    5 
 5/02/16   4:25    9.2    9.2    9.1    96    8.6  13.0    SW   1.08  16.0    SW    5.7    9.4    5.9  1023.5  0.00  0.00   0.032   0.000   20.9    49    9.8   20.0   9.06  .0748    117    1    100.0    5 
 5/02/16   4:30    9.2    9.2    9.2    96    8.6  12.0    SW   1.00  15.0    SW    5.9    9.4    6.2  1023.4  0.00  0.00   0.032   0.000   20.9    49    9.8   20.0   9.06  .0748    115    1    100.0    5 
 5/02/16   4:35    9.2    9.2    9.2    96    8.6  13.0    SW   1.08  15.0    SW    5.7    9.4    5.9  1023.4  0.00  0.00   0.032   0.000   20.9    49    9.8   20.0   9.06  .0748    117    1    100.0    5 
 5/02/16   4:40    9.2    9.2    9.2    96    8.6  12.0    SW   1.00  14.0    SW    5.9    9.5    6.2  1023.4  0.00  0.00   0.032   0.000   20.9    49    9.8   20.0   9.06  .0748    116    1    100.0    5 
 5/02/16   4:45    9.2    9.2    9.2    96    8.6  11.0    SW   0.92  13.0    SW    6.2    9.5    6.5  1023.3  0.00  0.00   0.032   0.000   20.9    49    9.8   19.9   9.06  .0748    116    1    100.0    5 
 5/02/16   4:50    9.2    9.2    9.2    96    8.6  11.0    SW   0.92  13.0    SW    6.2    9.5    6.5  1023.3  0.00  0.00   0.032   0.000   20.8    49    9.7   19.9   9.06  .0748    117    1    100.0    5 
 5/02/16   4:55    9.2    9.2    9.2    96    8.6  12.0    SW   1.00  14.0    SW    5.9    9.5    6.2  1023.3  0.00  0.00   0.032   0.000   20.8    49    9.7   19.9   9.06  .0748    117    1    100.0    5 
 5/02/16   5:00    9.2    9.2    9.2    96    8.6  10.0    SW   0.83  13.0    SW    6.5    9.5    6.8  1023.2  0.00  0.00   0.032   0.000   20.8    49    9.7   19.9   9.06  .0748    117    1    100.0    5 
 5/02/16   5:05    9.3    9.3    9.2    96    8.7  11.0    SW   0.92  15.0    SW    6.3    9.6    6.6  1023.2  0.00  0.00   0.031   0.000   20.8    49    9.7   19.9   9.06  .0749    116    1    100.0    5 
 5/02/16   5:10    9.3    9.3    9.3    96    8.7  13.0    SW   1.08  16.0    SW    5.8    9.6    6.1  1023.2  0.00  0.00   0.031   0.000   20.8    49    9.7   19.9   9.06  .0749    118    1    100.0    5 
 5/02/16   5:15    9.4    9.4    9.3    96    8.8  13.0    SW   1.08  16.0    SW    5.9    9.7    6.2  1023.2  0.00  0.00   0.031   0.000   20.8    49    9.7   19.9   9.06  .0749    117    1    100.0    5 
 5/02/16   5:20    9.4    9.4    9.4    96    8.8  13.0    SW   1.08  16.0   SSW    5.9    9.7    6.2  1023.1  0.00  0.00   0.031   0.000   20.7    49    9.6   19.8   9.06  .0749    117    1    100.0    5 
 5/02/16   5:25    9.4    9.4    9.4    96    8.8  14.0    SW   1.17  17.0    SW    5.8    9.7    6.1  1023.0  0.00  0.00   0.031   0.000   20.7    49    9.6   19.8   9.06  .0749    117    1    100.0    5 
 5/02/16   5:30    9.5    9.5    9.4    96    8.9  15.0    SW   1.25  18.0   WSW    5.7    9.8    5.9  1022.9  0.00  0.00   0.031   0.000   20.7    49    9.6   19.8   9.07  .0749    115    1    100.0    5 
 5/02/16   5:35    9.5    9.5    9.5    96    8.9  15.0    SW   1.25  18.0    SW    5.7    9.8    5.9  1022.8  0.00  0.00   0.031   0.000   20.7    49    9.6   19.8   9.07  .0749    117    1    100.0    5 
 5/02/16   5:40    9.5    9.5    9.5    96    8.9  14.0    SW   1.17  18.0    SW    5.8    9.8    6.1  1022.8  0.00  0.00   0.031   0.000   20.6    49    9.5   19.8   9.07  .0749    116    1    100.0    5 
 5/02/16   5:45    9.5    9.5    9.5    96    8.9  16.0    SW   1.33  20.0   SSW    5.4    9.8    5.7  1022.7  0.00  0.00   0.031   0.000   20.6    49    9.5   19.8   9.07  .0749    116    1    100.0    5 
 5/02/16   5:50    9.5    9.6    9.5    96    8.9  16.0   SSW   1.33  21.0    SW    5.4    9.8    5.7  1022.6  0.00  0.00   0.031   0.000   20.6    49    9.5   19.7   9.07  .0749    117    1    100.0    5 
 5/02/16   5:55    9.5    9.6    9.5    96    8.9  15.0    SW   1.25  19.0    SW    5.7    9.8    5.9  1022.5  0.00  0.00   0.031   0.000   20.5    49    9.4   19.7   9.07  .0749    116    1    100.0    5 
 5/02/16   6:00    9.5    9.6    9.5    96    8.9  16.0    SW   1.33  20.0   SSW    5.4    9.8    5.7  1022.5  0.00  0.00   0.031   0.000   20.5    49    9.4   19.7   9.07  .0749    117    1    100.0    5 
 5/02/16   6:05    9.5    9.5    9.4    96    8.9  14.0    SW   1.17  18.0   SSW    5.8    9.8    6.1  1022.5  0.00  0.00   0.031   0.000   20.4    49    9.4   19.6   9.07  .0749    115    1    100.0    5 
 5/02/16   6:10    9.5    9.6    9.5    96    8.9  15.0    SW   1.25  19.0    SW    5.7    9.8    5.9  1022.4  0.00  0.00   0.031   0.000   20.4    49    9.4   19.6   9.07  .0749    117    1    100.0    5 
 5/02/16   6:15    9.5    9.5    9.5    96    8.9  14.0    SW   1.17  18.0    SW    5.8    9.8    6.1  1022.4  0.00  0.00   0.031   0.000   20.4    49    9.3   19.6   9.08  .0749    117    1    100.0    5 
 5/02/16   6:20    9.4    9.5    9.4    96    8.8  14.0    SW   1.17  18.0    SW    5.8    9.7    6.1  1022.5  0.00  0.00   0.031   0.000   20.4    49    9.3   19.6   9.08  .0749    117    1    100.0    5 
 5/02/16   6:25    9.4    9.4    9.4    96    8.8  15.0    SW   1.25  18.0    SW    5.6    9.7    5.9  1022.4  0.00  0.00   0.031   0.000   20.3    49    9.3   19.5   9.08  .0749    117    1    100.0    5 
 5/02/16   6:30    9.4    9.4    9.4    96    8.8  15.0    SW   1.25  19.0    SW    5.6    9.7    5.9  1022.4  0.00  0.00   0.031   0.000   20.3    49    9.3   19.5   9.08  .0749    117    1    100.0    5 
 5/02/16   6:35    9.4    9.4    9.4    96    8.8  16.0    SW   1.33  20.0    SW    5.4    9.7    5.7  1022.3  0.00  0.00   0.031   0.000   20.3    49    9.2   19.5   9.08  .0749    117    1    100.0    5 
 5/02/16   6:40    9.4    9.4    9.4    96    8.8  16.0    SW   1.33  20.0   SSW    5.3    9.7    5.6  1022.2  0.00  0.00   0.031   0.000   20.3    49    9.2   19.5   9.08  .0749    117    1    100.0    5 
 5/02/16   6:45    9.3    9.4    9.3    96    8.7  16.0    SW   1.33  20.0    SW    5.3    9.6    5.6  1022.3  0.00  0.00   0.031   0.000   20.2    49    9.2   19.4   9.08  .0750    117    1    100.0    5 
 5/02/16   6:50    9.3    9.3    9.3    96    8.7  15.0    SW   1.25  18.0    SW    5.5    9.6    5.8  1022.2  0.00  0.00   0.031   0.000   20.2    49    9.2   19.4   9.08  .0750    116    1    100.0    5 
 5/02/16   6:55    9.3    9.3    9.3    96    8.7  13.0    SW   1.08  16.0    SW    5.8    9.6    6.1  1022.1  0.00  0.00   0.031   0.000   20.2    49    9.1   19.4   9.08  .0750    117    1    100.0    5 
 5/02/16   7:00    9.2    9.3    9.2    96    8.6  13.0    SW   1.08  15.0    SW    5.7    9.5    6.0  1022.2  0.00  0.00   0.032   0.000   20.2    49    9.1   19.4   9.08  .0750    117    1    100.0    5 
 5/02/16   7:05    9.3    9.3    9.2    96    8.7  13.0    SW   1.08  17.0    SW    5.8    9.6    6.1  1022.1  0.00  0.00   0.031   0.000   20.2    49    9.1   19.4   9.08  .0750    117    1    100.0    5 
 5/02/16   7:10    9.3    9.3    9.3    96    8.7  15.0   SSW   1.25  18.0    SW    5.4    9.6    5.7  1022.0  0.00  0.00   0.031   0.000   20.1    49    9.1   19.3   9.09  .0750    117    1    100.0    5 
 5/02/16   7:15    9.3    9.3    9.3    96    8.7  14.0   SSW   1.17  17.0   SSW    5.6    9.6    5.8  1022.0  0.00  0.00   0.031   0.000   20.1    49    9.1   19.3   9.09  .0750    117    1    100.0    5 
 5/02/16   7:20    9.3    9.3    9.3    97    8.9  15.0   SSW   1.25  18.0   SSW    5.5    9.6    5.8  1021.8  0.00  0.00   0.031   0.000   20.1    49    9.0   19.3   9.09  .0750    117    1    100.0    5 
 5/02/16   7:25    9.4    9.4    9.3    97    8.9  15.0   SSW   1.25  18.0   SSW    5.6    9.7    5.8  1021.9  0.00  0.00   0.031   0.000   20.0    49    9.0   19.2   9.09  .0750    117    1    100.0    5 
 5/02/16   7:30    9.3    9.4    9.3    96    8.7  14.0   SSW   1.17  17.0   SSW    5.7    9.6    5.9  1021.9  0.00  0.00   0.031   0.000   20.0    50    9.3   19.3   9.29  .0750    116    1    100.0    5 
 5/02/16   7:35    9.3    9.4    9.3    96    8.7  14.0   SSW   1.17  18.0   SSW    5.7    9.6    5.9  1021.9  0.00  0.00   0.031   0.000   20.0    50    9.3   19.3   9.29  .0750    116    1    100.0    5 
 5/02/16   7:40    9.4    9.4    9.3    97    8.9  16.0   SSW   1.33  21.0   SSW    5.3    9.7    5.6  1021.9  0.00  0.00   0.031   0.000   19.9    50    9.2   19.2   9.29  .0750    117    1    100.0    5 
 5/02/16   7:45    9.4    9.4    9.4    96    8.8  17.0   SSW   1.42  20.0   SSW    5.3    9.7    5.6  1021.9  0.00  0.00   0.031   0.000   19.9    50    9.2   19.2   9.29  .0750    116    1    100.0    5 
 5/02/16   7:50    9.4    9.4    9.4    96    8.8  17.0   SSW   1.42  20.0   SSW    5.3    9.7    5.6  1021.9  0.00  0.00   0.031   0.000   19.9    50    9.2   19.2   9.29  .0750    116    1    100.0    5 
 5/02/16   7:55    9.4    9.4    9.4    96    8.8  17.0    SW   1.42  22.0    SW    5.2    9.7    5.5  1021.8  0.00  0.00   0.031   0.000   19.9    50    9.2   19.2   9.29  .0750    117    1    100.0    5 
 5/02/16   8:00    9.4    9.4    9.4    96    8.8  17.0    SW   1.42  22.0   SSW    5.3    9.7    5.6  1021.8  0.00  0.00   0.031   0.000   19.9    50    9.2   19.2   9.29  .0750    117    1    100.0    5 
 5/02/16   8:05    9.4    9.4    9.4    96    8.8  16.0    SW   1.33  22.0    SW    5.4    9.7    5.7  1021.8  0.00  0.00   0.031   0.000   19.9    50    9.2   19.2   9.29  .0750    117    1    100.0    5 
 5/02/16   8:10    9.4    9.4    9.4    96    8.8  15.0    SW   1.25  20.0    SW    5.6    9.7    5.9  1021.7  0.00  0.00   0.031   0.000   19.9    50    9.2   19.2   9.29  .0750    117    1    100.0    5 
 5/02/16   8:15    9.4    9.4    9.4    96    8.8  15.0    SW   1.25  18.0    SW    5.6    9.7    5.9  1021.7  0.00  0.00   0.031   0.000   19.9    50    9.2   19.2   9.29  .0750    116    1    100.0    5 
 5/02/16   8:20    9.4    9.5    9.4    96    8.8  15.0    SW   1.25  20.0   SSW    5.6    9.7    5.9  1021.6  0.00  0.00   0.031   0.000   19.9    51    9.4   19.2   9.49  .0750    118    1    100.0    5 
 5/02/16   8:25    9.5    9.5    9.4    96    8.9  16.0    SW   1.33  21.0    SW    5.4    9.8    5.7  1021.6  0.00  0.00   0.031   0.000   19.9    52    9.7   19.3   9.69  .0750    117    1    100.0    5 
 5/02/16   8:30    9.5    9.5    9.5    96    8.9  16.0    SW   1.33  21.0    SW    5.4    9.8    5.7  1021.5  0.00  0.00   0.031   0.000   19.9    54   10.4   19.4  10.03  .0749    117    1    100.0    5 
 5/02/16   8:35    9.4    9.5    9.4    96    8.8  17.0   SSW   1.42  20.0    SW    5.3    9.7    5.6  1021.6  0.00  0.00   0.031   0.000   19.9    56   10.9   19.6  10.39  .0749    117    1    100.0    5 
 5/02/16   8:40    9.4    9.5    9.4    96    8.8  17.0   SSW   1.42  20.0   SSW    5.3    9.7    5.6  1021.6  0.00  0.00   0.031   0.000   19.9    57   11.2   19.6  10.59  .0749    117    1    100.0    5 
 5/02/16   8:45    9.4    9.5    9.4    96    8.8  16.0   SSW   1.33  19.0    SW    5.4    9.7    5.7  1021.6  0.00  0.00   0.031   0.000   20.0    58   11.5   19.7  10.75  .0748    117    1    100.0    5 
 5/02/16   8:50    9.4    9.5    9.4    96    8.8  16.0   SSW   1.33  19.0   SSW    5.4    9.7    5.7  1021.6  0.00  0.00   0.031   0.000   20.0    57   11.2   19.7  10.59  .0748    117    1    100.0    5 
 5/02/16   8:55    9.4    9.4    9.4    96    8.8  15.0   SSW   1.25  18.0   SSW    5.6    9.7    5.9  1021.5  0.00  0.00   0.031   0.000   20.1    56   11.0   19.7  10.39  .0748    117    1    100.0    5 
 5/02/16   9:00    9.4    9.4    9.4    96    8.8  16.0   SSW   1.33  19.0   SSW    5.4    9.7    5.7  1021.5  0.00  0.00   0.031   0.000   20.1    56   11.0   19.7  10.39  .0748    117    1    100.0    5 
 5/02/16   9:05    9.4    9.4    9.4    96    8.8  15.0   SSW   1.25  19.0    SW    5.6    9.7    5.9  1021.5  0.00  0.00   0.031   0.000   20.1    55   10.8   19.7  10.19  .0748    117    1    100.0    5 
 5/02/16   9:10    9.4    9.4    9.4    96    8.8  17.0   SSW   1.42  20.0   SSW    5.3    9.7    5.6  1021.5  0.00  0.00   0.031   0.000   20.1    55   10.8   19.7  10.19  .0748    116    1    100.0    5 
 5/02/16   9:15    9.5    9.5    9.4    96    8.9  18.0   SSW   1.50  21.0   SSW    5.2    9.8    5.4  1021.4  0.00  0.00   0.031   0.000   20.1    54   10.5   19.6  10.02  .0748    117    1    100.0    5 
 5/02/16   9:20    9.5    9.5    9.5    96    8.9  18.0   SSW   1.50  22.0   SSW    5.2    9.8    5.4  1021.4  0.00  0.00   0.031   0.000   20.1    54   10.5   19.6  10.02  .0748    117    1    100.0    5 
 5/02/16   9:25    9.5    9.6    9.5    96    8.9  19.0   SSW   1.58  22.0   SSW    5.0    9.8    5.3  1021.3  0.00  0.00   0.031   0.000   20.2    54   10.6   19.6  10.02  .0748    118    1    100.0    5 
 5/02/16   9:30    9.5    9.5    9.5    96    8.9  19.0   SSW   1.58  22.0   SSW    5.0    9.8    5.3  1021.2  0.00  0.00   0.031   0.000   20.2    53   10.3   19.6   9.88  .0748    117    1    100.0    5 
 5/02/16   9:35    9.5    9.5    9.5    96    8.9  19.0   SSW   1.58  23.0   SSW    5.0    9.8    5.3  1021.2  0.00  0.00   0.031   0.000   20.2    53   10.3   19.6   9.88  .0748    117    1    100.0    5 
 5/02/16   9:40    9.4    9.5    9.4    95    8.7  19.0   SSW   1.58  23.0    SW    4.9    9.7    5.2  1021.2  0.00  0.00   0.031   0.000   20.2    53   10.3   19.6   9.88  .0748    116    1    100.0    5 
 5/02/16   9:45    9.5    9.5    9.4    95    8.7  19.0   SSW   1.58  22.0    SW    5.0    9.8    5.3  1021.2  0.00  0.00   0.031   0.000   20.2    53   10.3   19.6   9.88  .0748    117    1    100.0    5 
 5/02/16   9:50    9.6    9.6    9.5    95    8.8  20.0   SSW   1.67  23.0    SW    4.9    9.8    5.2  1021.2  0.00  0.00   0.030   0.000   20.2    53   10.3   19.6   9.88  .0748    116    1    100.0    5 
 5/02/16   9:55    9.6    9.6    9.6    94    8.6  18.0    SW   1.50  24.0    SW    5.2    9.8    5.5  1021.2  0.00  0.00   0.030   0.000   20.2    53   10.3   19.6   9.88  .0748    116    1    100.0    5 
 5/02/16  10:00    9.6    9.6    9.6    94    8.6  20.0    SW   1.67  25.0    SW    4.9    9.8    5.2  1021.2  0.00  0.00   0.030   0.000   20.2    53   10.3   19.6   9.88  .0748    116    1    100.0    5 
 5/02/16  10:05    9.6    9.6    9.6    94    8.6  20.0   SSW   1.67  24.0    SW    4.9    9.8    5.2  1021.2  0.00  0.00   0.030   0.000   20.2    52   10.0   19.6   9.68  .0748    117    1    100.0    5 
 5/02/16  10:10    9.5    9.6    9.5    94    8.6  20.0   SSW   1.67  23.0   SSW    4.9    9.8    5.2  1021.1  0.00  0.00   0.031   0.000   20.2    52   10.0   19.6   9.68  .0748    117    1    100.0    5 
 5/02/16  10:15    9.4    9.5    9.4    94    8.5  21.0   SSW   1.75  24.0   SSW    4.7    9.7    5.0  1020.9  0.00  0.00   0.031   0.000   20.2    52   10.0   19.6   9.68  .0748    115    1    100.0    5 
 5/02/16  10:20    9.4    9.4    9.4    95    8.6  20.0   SSW   1.67  23.0   SSW    4.8    9.7    5.1  1020.9  0.00  0.00   0.031   0.000   20.1    52    9.9   19.5   9.69  .0748    115    1    100.0    5 
 5/02/16  10:25    9.4    9.4    9.4    95    8.7  18.0   SSW   1.50  22.0    SW    5.1    9.7    5.4  1020.8  0.00  0.00   0.031   0.000   20.1    52    9.9   19.5   9.69  .0748    117    1    100.0    5 
 5/02/16  10:30    9.5    9.5    9.4    95    8.7  18.0   SSW   1.50  22.0   SSW    5.2    9.8    5.4  1020.8  0.00  0.00   0.031   0.000   20.1    52    9.9   19.5   9.69  .0748    118    1    100.0    5 
 5/02/16  10:35    9.4    9.5    9.4    95    8.7  18.0   SSW   1.50  22.0   SSW    5.1    9.7    5.4  1020.8  0.00  0.00   0.031   0.000   20.1    52    9.9   19.5   9.69  .0748    117    1    100.0    5 
 5/02/16  10:40    9.4    9.4    9.4    95    8.6  19.0   SSW   1.58  22.0    SW    4.9    9.7    5.2  1020.9  0.00  0.00   0.031   0.000   20.1    52    9.9   19.5   9.69  .0748    116    1    100.0    5 
 5/02/16  10:45    9.4    9.4    9.4    95    8.7  19.0   SSW   1.58  23.0   SSW    4.9    9.7    5.2  1020.7  0.00  0.00   0.031   0.000   20.1    52    9.9   19.5   9.69  .0748    117    1    100.0    5 
 5/02/16  10:50    9.5    9.5    9.4    95    8.7  19.0   SSW   1.58  25.0   SSW    5.0    9.8    5.3  1020.9  0.00  0.00   0.031   0.000   20.1    52    9.9   19.5   9.69  .0748    117    1    100.0    5 
 5/02/16  10:55    9.5    9.5    9.5    95    8.7  18.0   SSW   1.50  21.0   SSW    5.2    9.8    5.4  1020.9  0.00  0.00   0.031   0.000   20.1    52    9.9   19.5   9.69  .0748    114    1    100.0    5 
 5/02/16  11:00    9.5    9.5    9.5    95    8.7  15.0   SSW   1.25  19.0   SSW    5.7    9.8    5.9  1020.8  0.00  0.00   0.031   0.000   20.1    52    9.9   19.5   9.69  .0748    117    1    100.0    5 
 5/02/16  11:05    9.5    9.6    9.5    95    8.7  16.0   SSW   1.33  20.0   SSW    5.4    9.8    5.7  1020.7  0.00  0.00   0.031   0.000   20.1    52    9.9   19.5   9.69  .0748    117    1    100.0    5 
 5/02/16  11:10    9.6    9.6    9.6    95    8.8  15.0   SSW   1.25  20.0   SSW    5.7    9.8    6.0  1020.7  0.00  0.00   0.030   0.000   20.1    52    9.9   19.5   9.69  .0748    117    1    100.0    5 
 5/02/16  11:15    9.5    9.6    9.5    95    8.7  15.0   SSW   1.25  20.0   SSW    5.7    9.8    5.9  1020.7  0.00  0.00   0.031   0.000   20.1    52    9.9   19.4   9.69  .0748    117    1    100.0    5 
 5/02/16  11:20    9.6    9.6    9.5    95    8.8  14.0   SSW   1.17  19.0   SSW    5.9    9.8    6.2  1020.6  0.00  0.00   0.030   0.000   20.1    52    9.9   19.4   9.69  .0748    116    1    100.0    5 
 5/02/16  11:25    9.5    9.6    9.5    95    8.7  13.0   SSW   1.08  18.0   SSW    6.0    9.8    6.3  1020.5  0.00  0.00   0.031   0.000   20.1    52    9.9   19.4   9.69  .0748    117    1    100.0    5 
 5/02/16  11:30    9.6    9.6    9.6    95    8.8  14.0   SSW   1.17  18.0   SSW    5.9    9.8    6.2  1020.5  0.00  0.00   0.030   0.000   20.1    52    9.9   19.4   9.69  .0748    117    1    100.0    5 
 5/02/16  11:35    9.6    9.6    9.6    95    8.8  16.0   SSW   1.33  22.0   SSW    5.5    9.8    5.8  1020.4  0.00  0.00   0.030   0.000   20.1    52    9.9   19.4   9.69  .0748    117    1    100.0    5 
 5/02/16  11:40    9.5    9.6    9.5    95    8.7  18.0   SSW   1.50  22.0   SSW    5.2    9.8    5.4  1020.3  0.00  0.00   0.031   0.000   20.0    52    9.8   19.4   9.69  .0748    117    1    100.0    5 
 5/02/16  11:45    9.4    9.5    9.4    95    8.6  17.0   SSW   1.42  19.0   SSW    5.2    9.7    5.5  1020.2  0.00  0.00   0.031   0.000   20.0    52    9.8   19.4   9.69  .0748    117    1    100.0    5 
 5/02/16  11:50    9.3    9.4    9.3    95    8.6  15.0   SSW   1.25  18.0    SW    5.5    9.6    5.8  1020.2  0.00  0.00   0.031   0.000   20.0    52    9.8   19.4   9.69  .0748    117    1    100.0    5 
 5/02/16  11:55    9.3    9.3    9.3    96    8.7  16.0   SSW   1.33  21.0   SSW    5.3    9.6    5.6  1020.0  0.00  0.00   0.031   0.000   20.0    52    9.8   19.4   9.69  .0748    117    1    100.0    5 
 5/02/16  12:00    9.3    9.3    9.3    96    8.7  16.0   SSW   1.33  19.0   SSW    5.3    9.6    5.6  1019.8  0.00  0.00   0.031   0.000   20.0    52    9.8   19.4   9.69  .0748    116    1    100.0    5 
 5/02/16  12:05    9.3    9.4    9.3    96    8.7  16.0   SSW   1.33  19.0   SSW    5.3    9.6    5.6  1019.8  0.00  0.00   0.031   0.000   20.0    52    9.8   19.4   9.69  .0748    117    1    100.0    5 
 5/02/16  12:10    9.4    9.4    9.3    96    8.8  16.0   SSW   1.33  22.0   SSW    5.3    9.7    5.6  1019.6  0.00  0.00   0.031   0.000   19.9    52    9.8   19.3   9.69  .0748    116    1    100.0    5 
 5/02/16  12:15    9.4    9.4    9.4    96    8.8  19.0   SSW   1.58  23.0   SSW    4.9    9.7    5.2  1019.6  0.00  0.00   0.031   0.000   19.9    52    9.8   19.3   9.69  .0748    117    1    100.0    5 
 5/02/16  12:20    9.5    9.5    9.4    96    8.9  19.0   SSW   1.58  24.0   SSW    5.0    9.8    5.3  1019.5  0.00  0.00   0.031   0.000   19.9    52    9.8   19.3   9.69  .0748    116    1    100.0    5 
 5/02/16  12:25    9.5    9.5    9.5    96    8.9  18.0   SSW   1.50  22.0    SW    5.2    9.8    5.4  1019.5  0.00  0.00   0.031   0.000   19.9    52    9.8   19.3   9.69  .0748    117    1    100.0    5 
 5/02/16  12:30    9.4    9.5    9.4    96    8.8  17.0   SSW   1.42  22.0    SW    5.3    9.7    5.6  1019.4  0.00  0.00   0.031   0.000   19.9    52    9.7   19.3   9.69  .0748    117    1    100.0    5 
 5/02/16  12:35    9.4    9.4    9.4    96    8.8  16.0   SSW   1.33  20.0    SW    5.4    9.7    5.7  1019.4  0.00  0.00   0.031   0.000   19.9    52    9.7   19.3   9.69  .0748    118    1    100.0    5 
 5/02/16  12:40    9.4    9.4    9.4    96    8.8  16.0   SSW   1.33  20.0   SSW    5.4    9.7    5.7  1019.3  0.00  0.00   0.031   0.000   19.9    52    9.7   19.3   9.69  .0748    117    1    100.0    5 
 5/02/16  12:45    9.4    9.4    9.4    96    8.8  16.0   SSW   1.33  22.0   SSW    5.4    9.7    5.7  1019.2  0.00  0.00   0.031   0.000   19.9    52    9.7   19.3   9.69  .0748    117    1    100.0    5 
 5/02/16  12:50    9.5    9.5    9.4    96    8.9  16.0   SSW   1.33  21.0   SSW    5.4    9.8    5.7  1019.1  0.00  0.00   0.031   0.000   19.8    52    9.7   19.2   9.70  .0748    116    1    100.0    5 
 5/02/16  12:55    9.6    9.6    9.5    96    8.9  18.0   SSW   1.50  22.0   SSW    5.2    9.8    5.5  1019.0  0.00  0.00   0.030   0.000   19.8    52    9.7   19.2   9.70  .0748    117    1    100.0    5 
 5/02/16  13:00    9.6    9.6    9.5    96    8.9  17.0   SSW   1.42  21.0    SW    5.4    9.8    5.7  1018.8  0.00  0.00   0.030   0.000   19.8    52    9.7   19.2   9.70  .0748    117    1    100.0    5 
 5/02/16  13:05    9.5    9.6    9.5    96    8.9  17.0   SSW   1.42  22.0   SSW    5.3    9.8    5.6  1018.7  0.00  0.00   0.031   0.000   19.8    52    9.7   19.2   9.70  .0748    117    1    100.0    5 
 5/02/16  13:10    9.5    9.5    9.5    96    8.9  18.0   SSW   1.50  21.0   SSW    5.2    9.8    5.4  1018.6  0.00  0.00   0.031   0.000   19.8    52    9.7   19.2   9.70  .0748    116    1    100.0    5 
 5/02/16  13:15    9.6    9.6    9.5    96    8.9  17.0   SSW   1.42  21.0   SSW    5.4    9.8    5.7  1018.6  0.00  0.00   0.030   0.000   19.8    52    9.7   19.2   9.70  .0748    114    1    100.0    5 
 5/02/16  13:20    9.6    9.6    9.6    96    9.0  18.0   SSW   1.50  22.0   SSW    5.3    9.9    5.6  1018.4  0.00  0.00   0.030   0.000   19.8    52    9.7   19.2   9.70  .0747    116    1    100.0    5 
 5/02/16  13:25    9.7    9.7    9.6    95    8.9  19.0   SSW   1.58  23.0   SSW    5.2    9.9    5.5  1018.4  0.00  0.00   0.030   0.000   19.8    52    9.7   19.2   9.70  .0747    117    1    100.0    5 
 5/02/16  13:30    9.6    9.7    9.6    95    8.8  18.0   SSW   1.50  22.0   SSW    5.3    9.9    5.6  1018.3  0.00  0.00   0.030   0.000   19.8    52    9.6   19.2   9.70  .0747    115    1    100.0    5 
 5/02/16  13:35    9.6    9.7    9.6    96    9.0  17.0   SSW   1.42  22.0   SSW    5.4    9.9    5.7  1018.3  0.00  0.00   0.030   0.000   19.8    52    9.6   19.2   9.70  .0747    117    1    100.0    5 
 5/02/16  13:40    9.6    9.6    9.6    96    8.9  18.0   SSW   1.50  22.0   SSW    5.2    9.8    5.5  1018.3  0.00  0.00   0.030   0.000   19.8    52    9.6   19.2   9.70  .0747    117    1    100.0    5 
 5/02/16  13:45    9.6    9.6    9.5    96    8.9  19.0   SSW   1.58  23.0   SSW    5.1    9.8    5.3  1018.1  0.00  0.00   0.030   0.000   19.8    52    9.6   19.2   9.70  .0747    117    1    100.0    5 
 5/02/16  13:50    9.4    9.6    9.4    96    8.8  21.0   SSW   1.75  27.0   SSW    4.7    9.7    5.0  1017.9  0.00  0.00   0.031   0.000   19.8    52    9.6   19.2   9.70  .0747    117    1    100.0    5 
 5/02/16  13:55    9.4    9.4    9.4    96    8.8  22.0   SSW   1.83  27.0   SSW    4.6    9.7    4.9  1017.7  0.00  0.00   0.031   0.000   19.8    52    9.6   19.2   9.70  .0747    115    1    100.0    5 
 5/02/16  14:00    9.4    9.4    9.3    95    8.6  20.0   SSW   1.67  23.0    SW    4.8    9.7    5.1  1017.6  0.00  0.00   0.031   0.000   19.8    52    9.6   19.2   9.70  .0747    117    1    100.0    5 
 5/02/16  14:05    9.4    9.4    9.4    96    8.8  19.0   SSW   1.58  22.0   SSW    4.9    9.7    5.2  1017.5  0.00  0.00   0.031   0.000   19.7    52    9.6   19.1   9.70  .0747    116    1    100.0    5 
 5/02/16  14:10    9.5    9.5    9.4    96    8.9  18.0   SSW   1.50  22.0    SW    5.2    9.8    5.4  1017.4  0.00  0.00   0.031   0.000   19.8    52    9.6   19.2   9.70  .0747    117    1    100.0    5 
 5/02/16  14:15    9.6    9.6    9.5    96    8.9  18.0   SSW   1.50  23.0   SSW    5.2    9.8    5.5  1017.3  0.00  0.00   0.030   0.000   19.7    52    9.6   19.1   9.70  .0747    117    1    100.0    5 
 5/02/16  14:20    9.6    9.6    9.5    95    8.8  19.0   SSW   1.58  23.0   SSW    5.1    9.8    5.3  1017.2  0.00  0.00   0.030   0.000   19.7    52    9.6   19.1   9.70  .0747    117    1    100.0    5 
 5/02/16  14:25    9.6    9.6    9.5    95    8.8  19.0   SSW   1.58  23.0   SSW    5.1    9.8    5.3  1017.1  0.00  0.00   0.030   0.000   19.7    52    9.6   19.1   9.70  .0747    116    1    100.0    5 
 5/02/16  14:30    9.6    9.6    9.6    94    8.6  20.0   SSW   1.67  22.0   SSW    4.9    9.8    5.2  1016.9  0.00  0.00   0.030   0.000   19.7    52    9.6   19.1   9.70  .0747    117    1    100.0    5 
 5/02/16  14:35    9.6    9.6    9.6    94    8.7  19.0   SSW   1.58  22.0   SSW    5.2    9.9    5.4  1016.9  0.00  0.00   0.030   0.000   19.7    52    9.6   19.1   9.70  .0747    117    1    100.0    5 
 5/02/16  14:40    9.7    9.7    9.6    94    8.8  19.0   SSW   1.58  23.0   SSW    5.3   10.0    5.6  1016.8  0.00  0.00   0.030   0.000   19.7    52    9.6   19.1   9.70  .0747    116    1    100.0    5 
 5/02/16  14:45    9.8    9.8    9.7    94    8.9  19.0   SSW   1.58  23.0    SW    5.3   10.1    5.6  1016.8  0.00  0.00   0.030   0.000   19.7    52    9.6   19.1   9.70  .0747    118    1    100.0    5 
 5/02/16  14:50    9.8    9.8    9.8    93    8.8  20.0   SSW   1.67  23.0   SSW    5.3   10.1    5.5  1016.7  0.00  0.00   0.030   0.000   19.7    52    9.5   19.0   9.70  .0747    117    1    100.0    5 
 5/02/16  14:55    9.9    9.9    9.8    93    8.8  18.0   SSW   1.50  23.0   SSW    5.6   10.1    5.8  1016.7  0.00  0.00   0.029   0.000   19.7    52    9.5   19.0   9.70  .0747    117    1    100.0    5 
 5/02/16  15:00    9.9    9.9    9.9    93    8.9  20.0   SSW   1.67  23.0   SSW    5.4   10.2    5.6  1016.6  0.00  0.00   0.029   0.000   19.7    52    9.5   19.0   9.70  .0747    117    1    100.0    5 
 5/02/16  15:05    9.9    9.9    9.9    93    8.9  19.0   SSW   1.58  25.0   SSW    5.6   10.2    5.8  1016.6  0.00  0.00   0.029   0.000   19.7    52    9.5   19.0   9.70  .0747    116    1    100.0    5 
 5/02/16  15:10    9.9    9.9    9.9    93    8.9  20.0   SSW   1.67  24.0   SSW    5.4   10.2    5.6  1016.4  0.00  0.00   0.029   0.000   19.7    52    9.5   19.0   9.70  .0746    117    1    100.0    5 
 5/02/16  15:15    9.9    9.9    9.9    93    8.9  20.0   SSW   1.67  25.0   SSW    5.4   10.2    5.6  1016.4  0.00  0.00   0.029   0.000   19.6    52    9.5   18.9   9.70  .0747    117    1    100.0    5 
 5/02/16  15:20    9.9   10.0    9.9    93    8.9  18.0   SSW   1.50  23.0   SSW    5.7   10.2    5.9  1016.3  0.00  0.00   0.029   0.000   19.6    52    9.5   18.9   9.70  .0747    117    1    100.0    5 
 5/02/16  15:25    9.8    9.9    9.8    93    8.7  20.0   SSW   1.67  26.0   SSW    5.2   10.0    5.4  1016.3  0.00  0.00   0.030   0.000   19.6    52    9.5   18.9   9.70  .0747    116    1    100.0    5 
 5/02/16  15:30    9.7    9.8    9.7    93    8.6  19.0   SSW   1.58  24.0   SSW    5.3    9.9    5.5  1016.4  0.00  0.00   0.030   0.000   19.6    52    9.5   18.9   9.70  .0747    117    1    100.0    5 
 5/02/16  15:35    9.7    9.7    9.7    94    8.8  18.0   SSW   1.50  22.0   SSW    5.4   10.0    5.7  1016.3  0.00  0.00   0.030   0.000   19.6    52    9.5   18.9   9.70  .0747    115    1    100.0    5 
 5/02/16  15:40    9.7    9.7    9.7    94    8.7  19.0   SSW   1.58  22.0   SSW    5.2    9.9    5.5  1016.3  0.00  0.00   0.030   0.000   19.6    52    9.4   18.9   9.71  .0747    117    1    100.0    5 
 5/02/16  15:45    9.7    9.7    9.7    94    8.7  18.0   SSW   1.50  22.0     S    5.3    9.9    5.6  1016.2  0.00  0.00   0.030   0.000   19.6    52    9.4   18.9   9.71  .0747    114    1    100.0    5 
 5/02/16  15:50    9.6    9.7    9.6    94    8.7  18.0   SSW   1.50  22.0   SSW    5.3    9.9    5.6  1016.2  0.00  0.00   0.030   0.000   19.6    52    9.4   18.9   9.71  .0747    116    1    100.0    5 
 5/02/16  15:55    9.6    9.7    9.6    94    8.7  18.0   SSW   1.50  22.0   SSW    5.3    9.9    5.6  1016.2  0.00  0.00   0.030   0.000   19.6    52    9.4   18.9   9.71  .0747    117    1    100.0    5 
 5/02/16  16:00    9.6    9.6    9.6    94    8.6  17.0   SSW   1.42  20.0   SSW    5.4    9.8    5.7  1016.0  0.00  0.00   0.030   0.000   19.5    52    9.4   18.8   9.71  .0747    116    1    100.0    5 
 5/02/16  16:05    9.6    9.6    9.6    94    8.6  15.0   SSW   1.25  19.0   SSW    5.7    9.8    6.0  1016.0  0.00  0.00   0.030   0.000   19.5    52    9.4   18.8   9.71  .0747    117    1    100.0    5 
 5/02/16  16:10    9.6    9.6    9.6    94    8.6  14.0   SSW   1.17  18.0   SSW    5.9    9.8    6.2  1015.9  0.00  0.00   0.030   0.000   19.5    52    9.4   18.8   9.71  .0747    116    1    100.0    5 
 5/02/16  16:15    9.5    9.6    9.5    94    8.6  14.0   SSW   1.17  17.0   SSW    5.8    9.8    6.1  1015.9  0.00  0.00   0.031   0.000   19.5    52    9.4   18.8   9.71  .0747    117    1    100.0    5 
 5/02/16  16:20    9.5    9.6    9.5    94    8.6  13.0   SSW   1.08  18.0   SSW    6.0    9.8    6.3  1015.7  0.00  0.00   0.031   0.000   19.4    52    9.3   18.8   9.71  .0747    117    1    100.0    5 
 5/02/16  16:25    9.5    9.6    9.5    94    8.6  14.0   SSW   1.17  18.0   SSW    5.8    9.8    6.1  1015.7  0.00  0.00   0.031   0.000   19.4    52    9.3   18.8   9.71  .0747    117    1    100.0    5 
 5/02/16  16:30    9.6    9.6    9.5    94    8.6  15.0   SSW   1.25  18.0   SSW    5.7    9.8    6.0  1015.6  0.00  0.00   0.030   0.000   19.4    52    9.3   18.8   9.71  .0747    117    1    100.0    5 
 5/02/16  16:35    9.6    9.6    9.6    94    8.6  15.0     S   1.25  18.0     S    5.7    9.8    6.0  1015.5  0.00  0.00   0.030   0.000   19.4    52    9.3   18.7   9.71  .0747    115    1    100.0    5 
 5/02/16  16:40    9.6    9.6    9.6    94    8.6  15.0     S   1.25  17.0     S    5.7    9.8    6.0  1015.5  0.00  0.00   0.030   0.000   19.4    52    9.3   18.7   9.71  .0747    116    1    100.0    5 
 5/02/16  16:45    9.7    9.7    9.6    94    8.7  16.0     S   1.33  21.0   SSW    5.7    9.9    5.9  1015.4  0.00  0.00   0.030   0.000   19.4    52    9.3   18.7   9.71  .0747    116    1    100.0    5 
 5/02/16  16:50    9.6    9.7    9.6    94    8.7  16.0   SSW   1.33  20.0   SSW    5.6    9.9    5.9  1015.3  0.00  0.00   0.030   0.000   19.4    52    9.3   18.7   9.71  .0747    118    1    100.0    5 
 5/02/16  16:55    9.6    9.7    9.6    94    8.7  17.0   SSW   1.42  21.0   SSW    5.4    9.9    5.7  1015.3  0.00  0.00   0.030   0.000   19.4    52    9.3   18.7   9.71  .0746    117    1    100.0    5 
 5/02/16  17:00    9.6    9.7    9.6    94    8.7  17.0   SSW   1.42  21.0   SSW    5.4    9.9    5.7  1015.2  0.00  0.00   0.030   0.000   19.4    52    9.3   18.7   9.71  .0746    117    1    100.0    5 
 5/02/16  17:05    9.6    9.6    9.6    94    8.7  17.0   SSW   1.42  21.0   SSW    5.4    9.9    5.7  1015.1  0.00  0.00   0.030   0.000   19.4    52    9.3   18.7   9.71  .0746    116    1    100.0    5 
 5/02/16  17:10    9.6    9.6    9.6    94    8.7  17.0   SSW   1.42  21.0   SSW    5.4    9.9    5.7  1015.0  0.00  0.00   0.030   0.000   19.4    52    9.3   18.7   9.71  .0746    117    1    100.0    5 
 5/02/16  17:15    9.7    9.7    9.6    94    8.7  18.0   SSW   1.50  22.0   SSW    5.3    9.9    5.6  1015.0  0.00  0.00   0.030   0.000   19.4    52    9.3   18.7   9.71  .0746    117    1    100.0    5 
 5/02/16  17:20    9.7    9.7    9.6    94    8.7  17.0   SSW   1.42  21.0     S    5.5    9.9    5.8  1014.9  0.00  0.00   0.030   0.000   19.4    52    9.3   18.7   9.71  .0746    117    1    100.0    5 
 5/02/16  17:25    9.7    9.7    9.6    93    8.6  18.0   SSW   1.50  22.0     S    5.3    9.9    5.6  1014.8  0.00  0.00   0.030   0.000   19.4    52    9.3   18.7   9.71  .0746    115    1    100.0    5 
 5/02/16  17:30    9.7    9.7    9.6    93    8.6  18.0   SSW   1.50  23.0     S    5.3    9.9    5.6  1014.8  0.00  0.00   0.030   0.000   19.4    52    9.3   18.7   9.71  .0746    117    1    100.0    5 
 5/02/16  17:35    9.7    9.7    9.7    93    8.6  19.0   SSW   1.58  24.0     S    5.2    9.9    5.4  1014.7  0.00  0.00   0.030   0.000   19.4    52    9.3   18.8   9.71  .0746    117    1    100.0    5 
 5/02/16  17:40    9.7    9.7    9.7    94    8.7  19.0   SSW   1.58  22.0    SW    5.2    9.9    5.5  1014.7  0.00  0.00   0.030   0.000   19.4    52    9.3   18.8   9.71  .0746    117    1    100.0    5 
 5/02/16  17:45    9.7    9.7    9.7    93    8.6  19.0   SSW   1.58  26.0   SSW    5.3    9.9    5.5  1014.7  0.00  0.00   0.030   0.000   19.4    52    9.3   18.8   9.71  .0746    117    1    100.0    5 
 5/02/16  17:50    9.7    9.7    9.7    93    8.6  18.0   SSW   1.50  24.0     S    5.4    9.9    5.7  1014.7  0.00  0.00   0.030   0.000   19.4    52    9.3   18.8   9.71  .0746    115    1    100.0    5 
 5/02/16  17:55    9.7    9.7    9.7    93    8.6  18.0   SSW   1.50  25.0   SSW    5.4    9.9    5.7  1014.7  0.00  0.00   0.030   0.000   19.4    52    9.3   18.8   9.71  .0746    118    1    100.0    5 
 5/02/16  18:00    9.7    9.7    9.7    93    8.6  17.0   SSW   1.42  22.0     S    5.6    9.9    5.8  1014.6  0.00  0.00   0.030   0.000   19.4    53    9.6   18.8   9.91  .0746    117    1    100.0    5 
 5/02/16  18:05    9.7    9.7    9.7    93    8.6  17.0     S   1.42  21.0     S    5.6    9.9    5.8  1014.6  0.00  0.00   0.030   0.000   19.5    53    9.7   18.9   9.91  .0745    117    1    100.0    5 
 5/02/16  18:10    9.7    9.7    9.7    93    8.6  17.0   SSW   1.42  23.0   SSE    5.6    9.9    5.8  1014.5  0.00  0.00   0.030   0.000   19.5    53    9.7   18.9   9.91  .0745    117    1    100.0    5 
 5/02/16  18:15    9.7    9.7    9.7    93    8.6  18.0     S   1.50  23.0     S    5.4    9.9    5.7  1014.4  0.00  0.00   0.030   0.000   19.5    53    9.7   18.9   9.91  .0745    117    1    100.0    5 
 5/02/16  18:20    9.7    9.7    9.7    93    8.6  19.0     S   1.58  24.0     S    5.3    9.9    5.5  1014.3  0.00  0.00   0.030   0.000   19.6    53    9.7   18.9   9.91  .0745    117    1    100.0    5 
 5/02/16  18:25    9.7    9.7    9.7    93    8.6  19.0     S   1.58  24.0     S    5.3    9.9    5.5  1014.3  0.00  0.00   0.030   0.000   19.6    53    9.7   18.9   9.91  .0745    117    1    100.0    5 
 5/02/16  18:30    9.7    9.7    9.7    93    8.6  20.0   SSW   1.67  24.0   SSW    5.2    9.9    5.4  1014.2  0.00  0.00   0.030   0.000   19.6    53    9.7   18.9   9.91  .0745    117    1    100.0    5 
 5/02/16  18:35    9.7    9.8    9.7    93    8.6  19.0     S   1.58  24.0   SSW    5.3    9.9    5.5  1014.1  0.00  0.00   0.030   0.000   19.6    53    9.7   18.9   9.91  .0745    117    1    100.0    5 
 5/02/16  18:40    9.7    9.8    9.7    93    8.6  21.0   SSW   1.75  26.0   SSW    5.1    9.9    5.3  1014.0  0.00  0.00   0.030   0.000   19.6    53    9.7   18.9   9.91  .0745    117    1    100.0    5 
 5/02/16  18:45    9.7    9.8    9.7    93    8.6  19.0   SSW   1.58  24.0     S    5.3    9.9    5.5  1014.0  0.00  0.00   0.030   0.000   19.6    53    9.7   18.9   9.91  .0745    117    1    100.0    5 
 5/02/16  18:50    9.7    9.8    9.7    93    8.6  20.0   SSW   1.67  26.0     S    5.2    9.9    5.4  1014.0  0.00  0.00   0.030   0.000   19.6    53    9.8   19.0   9.90  .0745    116    1    100.0    5 
 5/02/16  18:55    9.7    9.7    9.7    93    8.6  18.0   SSW   1.50  23.0   SSW    5.4    9.9    5.7  1013.9  0.00  0.00   0.030   0.000   19.6    53    9.8   19.0   9.90  .0745    115    1    100.0    5 
 5/02/16  19:00    9.7    9.7    9.7    93    8.6  21.0     S   1.75  27.0   SSW    5.1    9.9    5.3  1013.7  0.00  0.00   0.030   0.000   19.6    53    9.8   19.0   9.90  .0744    118    1    100.0    5 
 5/02/16  19:05    9.7    9.7    9.7    93    8.6  21.0     S   1.75  25.0     S    5.1    9.9    5.3  1013.6  0.00  0.00   0.030   0.000   19.6    53    9.8   19.0   9.90  .0744    117    1    100.0    5 
 5/02/16  19:10    9.7    9.7    9.7    93    8.6  19.0     S   1.58  25.0   SSW    5.3    9.9    5.5  1013.5  0.00  0.00   0.030   0.000   19.7    53    9.8   19.1   9.90  .0744    116    1    100.0    5 
 5/02/16  19:15    9.7    9.7    9.7    93    8.6  20.0   SSW   1.67  26.0   SSW    5.1    9.9    5.3  1013.4  0.00  0.00   0.030   0.000   19.7    53    9.8   19.1   9.90  .0744    117    1    100.0    5 
 5/02/16  19:20    9.7    9.7    9.7    93    8.6  21.0   SSW   1.75  26.0   SSW    4.9    9.9    5.2  1013.3  0.00  0.00   0.030   0.000   19.7    53    9.8   19.1   9.90  .0744    117    1    100.0    5 
 5/02/16  19:25    9.7    9.7    9.7    93    8.6  22.0     S   1.83  27.0   SSW    4.9    9.9    5.1  1013.3  0.00  0.00   0.030   0.000   19.7    53    9.9   19.1   9.90  .0744    116    1    100.0    5 
 5/02/16  19:30    9.7    9.7    9.7    93    8.6  21.0   SSW   1.75  26.0   SSW    5.1    9.9    5.3  1013.2  0.00  0.00   0.030   0.000   19.7    53    9.9   19.1   9.90  .0744    116    1    100.0    5 
 5/02/16  19:35    9.7    9.7    9.7    93    8.6  18.0   SSW   1.50  23.0   SSW    5.4    9.9    5.7  1013.2  0.00  0.00   0.030   0.000   19.7    53    9.9   19.1   9.90  .0744    116    1    100.0    5 
 5/02/16  19:40    9.7    9.7    9.7    93    8.6  18.0   SSW   1.50  24.0   SSW    5.4    9.9    5.7  1013.1  0.00  0.00   0.030   0.000   19.7    53    9.9   19.1   9.90  .0744    117    1    100.0    5 
 5/02/16  19:45    9.7    9.7    9.7    92    8.5  22.0     S   1.83  31.0     S    4.9    9.9    5.1  1012.9  0.00  0.00   0.030   0.000   19.7    53    9.9   19.1   9.90  .0744    117    1    100.0    5 
 5/02/16  19:50    9.8    9.8    9.7    92    8.5  22.0   SSW   1.83  30.0     S    5.0   10.0    5.2  1012.9  0.00  0.00   0.030   0.000   19.8    53    9.9   19.2   9.90  .0743    117    1    100.0    5 
 5/02/16  19:55    9.8    9.8    9.8    92    8.6  23.0   SSW   1.92  29.0   SSW    4.9   10.1    5.2  1012.8  0.00  0.00   0.030   0.000   19.8    53    9.9   19.2   9.90  .0743    117    1    100.0    5 
 5/02/16  20:00    9.8    9.8    9.8    91    8.4  21.0   SSW   1.75  27.0     S    5.2   10.0    5.3  1012.8  0.00  0.00   0.030   0.000   19.8    54   10.3   19.3  10.04  .0743    117    1    100.0    5 
 5/02/16  20:05    9.8    9.8    9.8    91    8.4  22.0   SSW   1.83  28.0   SSW    5.1   10.0    5.2  1012.6  0.00  0.00   0.030   0.000   19.8    55   10.5   19.4  10.20  .0743    118    1    100.0    5 
 5/02/16  20:10    9.9    9.9    9.8    91    8.5  25.0   SSW   2.08  29.0   SSW    4.8   10.1    4.9  1012.5  0.00  0.00   0.029   0.000   19.8    56   10.8   19.4  10.40  .0742    117    1    100.0    5 
 5/02/16  20:15    9.8    9.9    9.8    91    8.4  23.0   SSW   1.92  32.0   SSW    4.9   10.0    5.1  1012.5  0.00  0.00   0.030   0.000   19.9    57   11.1   19.6  10.59  .0742    116    1    100.0    5 
 5/02/16  20:20    9.8    9.8    9.8    91    8.4  24.0     S   2.00  34.0   SSW    4.8   10.0    5.0  1012.3  0.00  0.00   0.030   0.000   19.9    57   11.1   19.6  10.59  .0742    117    1    100.0    5 
 5/02/16  20:25    9.9    9.9    9.8    91    8.5  24.0   SSW   2.00  31.0     S    4.9   10.1    5.1  1012.4  0.00  0.00   0.029   0.000   19.9    56   10.9   19.6  10.39  .0742    114    1    100.0    5 
 5/02/16  20:30    9.9    9.9    9.8    91    8.5  24.0   SSW   2.00  31.0     S    4.9   10.1    5.1  1012.4  0.00  0.00   0.029   0.000   19.9    56   10.9   19.6  10.39  .0742    116    1    100.0    5 
 5/02/16  20:35    9.9    9.9    9.9    90    8.3  26.0     S   2.17  33.0     S    4.7   10.1    4.8  1012.2  0.00  0.00   0.029   0.000   20.0    55   10.7   19.6  10.19  .0742    117    1    100.0    5 
 5/02/16  20:40    9.9    9.9    9.9    90    8.3  23.0     S   1.92  30.0   SSW    5.0   10.1    5.2  1012.1  0.00  0.00   0.029   0.000   20.0    55   10.7   19.6  10.19  .0742    116    1    100.0    5 
 5/02/16  20:45    9.8    9.9    9.8    90    8.3  23.0     S   1.92  29.0     S    4.9   10.0    5.1  1011.9  0.00  0.00   0.030   0.000   20.1    55   10.7   19.6  10.19  .0741    116    1    100.0    5 
 5/02/16  20:50    9.8    9.8    9.8    91    8.4  24.0     S   2.00  30.0     S    4.8   10.0    5.0  1011.9  0.00  0.00   0.030   0.000   20.1    55   10.7   19.6  10.19  .0741    116    1    100.0    5 
 5/02/16  20:55    9.8    9.8    9.8    91    8.4  22.0     S   1.83  29.0     S    5.0    9.9    5.2  1011.9  0.00  0.00   0.030   0.000   20.1    54   10.5   19.6  10.03  .0742    116    1    100.0    5 
 5/02/16  21:00    9.8    9.8    9.8    90    8.2  23.0     S   1.92  29.0     S    4.9    9.9    5.1  1011.8  0.00  0.00   0.030   0.000   20.1    54   10.5   19.6  10.02  .0741    116    1    100.0    5 
 5/02/16  21:05    9.8    9.8    9.8    90    8.2  23.0     S   1.92  28.0     S    4.9    9.9    5.1  1011.7  0.00  0.00   0.030   0.000   20.1    54   10.5   19.6  10.02  .0741    115    1    100.0    5 
 5/02/16  21:10    9.8    9.8    9.8    90    8.2  21.0     S   1.75  27.0   SSW    5.1    9.9    5.3  1011.7  0.00  0.00   0.030   0.000   20.1    54   10.5   19.6  10.02  .0741    116    1    100.0    5 
 5/02/16  21:15    9.7    9.8    9.7    90    8.2  21.0     S   1.75  29.0     S    5.1    9.9    5.2  1011.6  0.00  0.00   0.030   0.000   20.1    54   10.5   19.6  10.02  .0741    117    1    100.0    5 
 5/02/16  21:20    9.7    9.8    9.7    90    8.2  21.0   SSW   1.75  26.0     S    5.1    9.9    5.2  1011.4  0.00  0.00   0.030   0.000   20.2    54   10.6   19.6  10.02  .0741    116    1    100.0    5 
 5/02/16  21:25    9.8    9.8    9.7    90    8.2  23.0     S   1.92  30.0   SSE    4.9    9.9    5.1  1011.2  0.00  0.00   0.030   0.000   20.2    54   10.6   19.6  10.02  .0741    117    1    100.0    5 
 5/02/16  21:30    9.8    9.8    9.7    90    8.2  24.0   SSW   2.00  32.0   SSW    4.8    9.9    4.9  1011.1  0.00  0.00   0.030   0.000   20.2    54   10.6   19.6  10.02  .0741    116    1    100.0    5 
 5/02/16  21:35    9.8    9.8    9.8    90    8.2  22.0     S   1.83  29.0     S    5.0    9.9    5.2  1011.1  0.00  0.00   0.030   0.000   20.2    53   10.3   19.6   9.88  .0741    116    1    100.0    5 
 5/02/16  21:40    9.8    9.8    9.7    90    8.2  24.0   SSW   2.00  33.0     S    4.8    9.9    4.9  1011.2  0.00  0.00   0.030   0.000   20.2    53   10.3   19.6   9.88  .0741    116    1    100.0    5 
 5/02/16  21:45    9.8    9.8    9.7    90    8.2  23.0     S   1.92  28.0   SSW    4.9    9.9    5.1  1011.0  0.00  0.00   0.030   0.000   20.2    53   10.3   19.6   9.88  .0741    117    1    100.0    5 
 5/02/16  21:50    9.8    9.8    9.7    90    8.2  23.0     S   1.92  28.0     S    4.9    9.9    5.1  1011.0  0.00  0.00   0.030   0.000   20.2    53   10.3   19.6   9.88  .0741    117    1    100.0    5 
 5/02/16  21:55    9.7    9.8    9.7    90    8.2  23.0     S   1.92  29.0   SSW    4.8    9.9    5.0  1011.0  0.00  0.00   0.030   0.000   20.2    53   10.3   19.6   9.88  .0741    117    1    100.0    5 
 5/02/16  22:00    9.7    9.7    9.7    90    8.2  24.0     S   2.00  31.0   SSW    4.7    9.9    4.9  1010.9  0.00  0.00   0.030   0.000   20.3    53   10.4   19.7   9.88  .0740    117    1    100.0    5 
 5/02/16  22:05    9.7    9.7    9.7    90    8.1  23.0     S   1.92  27.0     S    4.7    9.8    4.9  1010.8  0.00  0.00   0.030   0.000   20.3    53   10.4   19.7   9.88  .0740    116    1    100.0    5 
 5/02/16  22:10    9.7    9.7    9.7    90    8.1  23.0   SSW   1.92  27.0   SSW    4.7    9.8    4.9  1010.7  0.00  0.00   0.030   0.000   20.3    53   10.4   19.7   9.88  .0740    118    1    100.0    5 
 5/02/16  22:15    9.6    9.7    9.6    90    8.1  22.0     S   1.83  27.0     S    4.8    9.8    4.9  1010.6  0.00  0.00   0.030   0.000   20.3    53   10.4   19.7   9.88  .0740    116    1    100.0    5 
 5/02/16  22:20    9.6    9.6    9.6    90    8.1  24.0     S   2.00  29.0     S    4.6    9.8    4.7  1010.3  0.00  0.00   0.030   0.000   20.3    53   10.4   19.7   9.88  .0740    116    1    100.0    5 
 5/02/16  22:25    9.6    9.6    9.6    90    8.0  24.0     S   2.00  29.0     S    4.5    9.7    4.7  1010.3  0.00  0.00   0.030   0.000   20.3    53   10.4   19.7   9.88  .0740    116    1    100.0    5 
 5/02/16  22:30    9.6    9.6    9.6    90    8.0  25.0     S   2.08  31.0   SSW    4.4    9.7    4.6  1010.3  0.00  0.00   0.030   0.000   20.2    52   10.0   19.6   9.68  .0740    117    1    100.0    5 
 5/02/16  22:35    9.6    9.6    9.6    90    8.0  23.0     S   1.92  31.0     S    4.6    9.7    4.8  1010.2  0.00  0.00   0.030   0.000   20.3    52   10.1   19.6   9.68  .0740    117    1    100.0    5 
 5/02/16  22:40    9.5    9.6    9.5    91    8.1  23.0     S   1.92  29.0     S    4.6    9.7    4.7  1010.2  0.00  0.00   0.031   0.000   20.2    52   10.0   19.6   9.68  .0740    117    1    100.0    5 
 5/02/16  22:45    9.6    9.6    9.5    90    8.0  25.0     S   2.08  30.0     S    4.4    9.7    4.6  1010.2  0.00  0.00   0.030   0.000   20.2    52   10.0   19.6   9.68  .0740    117    1    100.0    5 
 5/02/16  22:50    9.6    9.6    9.6    90    8.0  23.0     S   1.92  29.0   SSW    4.6    9.7    4.8  1010.2  0.00  0.00   0.030   0.000   20.2    52   10.0   19.6   9.68  .0740    116    1    100.0    5 
 5/02/16  22:55    9.6    9.6    9.6    90    8.0  23.0     S   1.92  28.0     S    4.6    9.7    4.8  1010.1  0.00  0.00   0.030   0.000   20.2    52   10.0   19.6   9.68  .0740    117    1    100.0    5 
 5/02/16  23:00    9.6    9.6    9.6    90    8.0  22.0     S   1.83  28.0   SSW    4.7    9.7    4.9  1010.0  0.00  0.00   0.030   0.000   20.2    52   10.0   19.6   9.68  .0740    117    1    100.0    5 
 5/02/16  23:05    9.6    9.6    9.6    90    8.0  22.0     S   1.83  29.0     S    4.7    9.7    4.9  1010.0  0.00  0.00   0.030   0.000   20.2    52   10.0   19.6   9.68  .0740    117    1    100.0    5 
 5/02/16  23:10    9.6    9.6    9.6    91    8.2  23.0     S   1.92  28.0   SSW    4.6    9.7    4.8  1009.9  0.00  0.00   0.030   0.000   20.2    52   10.0   19.6   9.68  .0740    117    1    100.0    5 
 5/02/16  23:15    9.6    9.6    9.6    90    8.1  23.0     S   1.92  30.0   SSW    4.7    9.8    4.8  1009.9  0.00  0.00   0.030   0.000   20.1    52    9.9   19.5   9.69  .0740    118    1    100.0    5 
 5/02/16  23:20    9.6    9.6    9.6    91    8.2  22.0     S   1.83  26.0     S    4.7    9.7    4.9  1009.8  0.00  0.00   0.030   0.000   20.1    52    9.9   19.5   9.69  .0740    115    1    100.0    5 
 5/02/16  23:25    9.6    9.6    9.6    91    8.2  23.0     S   1.92  29.0     S    4.6    9.7    4.8  1009.7  0.00  0.00   0.030   0.000   20.1    52    9.9   19.4   9.69  .0740    117    1    100.0    5 
 5/02/16  23:30    9.6    9.6    9.6    91    8.2  22.0     S   1.83  30.0     S    4.8    9.8    4.9  1009.7  0.00  0.00   0.030   0.000   20.1    52    9.9   19.4   9.69  .0740    117    1    100.0    5 
 5/02/16  23:35    9.6    9.6    9.6    91    8.2  21.0   SSW   1.75  27.0     S    4.9    9.8    5.1  1009.9  0.00  0.00   0.030   0.000   20.1    52    9.9   19.4   9.69  .0740    117    1    100.0    5 
 5/02/16  23:40    9.6    9.6    9.6    91    8.2  22.0     S   1.83  28.0     S    4.8    9.8    4.9  1009.6  0.00  0.00   0.030   0.000   20.0    52    9.8   19.4   9.69  .0740    116    1    100.0    5 
 5/02/16  23:45    9.6    9.6    9.6    91    8.2  23.0     S   1.92  29.0   SSW    4.7    9.8    4.8  1009.6  0.00  0.00   0.030   0.000   20.0    52    9.8   19.4   9.69  .0740    116    1    100.0    5 
 5/02/16  23:50    9.6    9.6    9.6    91    8.2  23.0     S   1.92  28.0     S    4.7    9.8    4.8  1009.5  0.00  0.00   0.030   0.000   19.9    51    9.5   19.3   9.49  .0741    115    1    100.0    5 
118864